N35386 KIOW-KLBF
Flight info
| Callsign | N35386 |
|---|---|
| Flight time | 4h 5m |
| Altitude | 4000 |
| Route | LEONG Q114 AYOLE/N0111F050 |
| Aircraft | C172/L-SFG/C |
Departure
| Time | 2026-04-20 03:16 |
|---|---|
| Airport | Iowa City Municipal Airport (KIOW) |
Arrival
| Time | 2026-04-20 07:21 |
|---|---|
| Airport | North Platte Regional Airport Lee Bird Field (KLBF) |
| Time | Latitude | Longitude | Altitude | Speed | Heading |
|---|---|---|---|---|---|
| 2026-04-20 03:02 | 41.63989 | -91.54345 | 656 ft | 0 kts | 180° |
| 2026-04-20 03:11 | 41.63980 | -91.54335 | 656 ft | 5 kts | 115° |
| 2026-04-20 03:11 | 41.63979 | -91.54275 | 656 ft | 7 kts | 87° |
| 2026-04-20 03:12 | 41.63950 | -91.54242 | 655 ft | 7 kts | 172° |
| 2026-04-20 03:12 | 41.63875 | -91.54241 | 655 ft | 13 kts | 181° |
| 2026-04-20 03:12 | 41.63774 | -91.54257 | 655 ft | 12 kts | 190° |
| 2026-04-20 03:12 | 41.63747 | -91.54266 | 655 ft | 0 kts | 222° |
| 2026-04-20 03:13 | 41.63705 | -91.54279 | 655 ft | 10 kts | 184° |
| 2026-04-20 03:14 | 41.63646 | -91.54219 | 655 ft | 12 kts | 127° |
| 2026-04-20 03:14 | 41.63594 | -91.54136 | 652 ft | 12 kts | 135° |
| 2026-04-20 03:14 | 41.63595 | -91.54125 | 652 ft | 4 kts | 296° |
| 2026-04-20 03:14 | 41.63654 | -91.54238 | 655 ft | 35 kts | 306° |
| 2026-04-20 03:15 | 41.63871 | -91.54630 | 693 ft | 64 kts | 305° |
| 2026-04-20 03:15 | 41.64153 | -91.55163 | 812 ft | 74 kts | 298° |
| 2026-04-20 03:15 | 41.64442 | -91.55758 | 989 ft | 75 kts | 297° |
| 2026-04-20 03:15 | 41.64710 | -91.56325 | 1164 ft | 74 kts | 294° |
| 2026-04-20 03:16 | 41.64642 | -91.57052 | 1293 ft | 89 kts | 249° |
| 2026-04-20 03:16 | 41.64137 | -91.57612 | 1430 ft | 104 kts | 217° |
| 2026-04-20 03:16 | 41.63471 | -91.58010 | 1549 ft | 103 kts | 225° |
| 2026-04-20 03:16 | 41.63023 | -91.58706 | 1723 ft | 97 kts | 254° |
| 2026-04-20 03:17 | 41.62873 | -91.59526 | 1938 ft | 88 kts | 277° |
| 2026-04-20 03:17 | 41.62955 | -91.60331 | 2107 ft | 86 kts | 290° |
| 2026-04-20 03:17 | 41.63106 | -91.61099 | 2287 ft | 85 kts | 292° |
| 2026-04-20 03:17 | 41.63174 | -91.61889 | 2448 ft | 90 kts | 272° |
| 2026-04-20 03:18 | 41.63138 | -91.62722 | 2583 ft | 90 kts | 273° |
| 2026-04-20 03:18 | 41.63079 | -91.63566 | 2718 ft | 91 kts | 272° |
| 2026-04-20 03:18 | 41.63034 | -91.64123 | 2798 ft | 91 kts | 274° |
| 2026-04-20 03:18 | 41.62960 | -91.64972 | 2939 ft | 94 kts | 273° |
| 2026-04-20 03:19 | 41.62880 | -91.65861 | 3076 ft | 98 kts | 273° |
| 2026-04-20 03:19 | 41.62789 | -91.66765 | 3205 ft | 98 kts | 272° |
| 2026-04-20 03:19 | 41.62704 | -91.67675 | 3338 ft | 100 kts | 272° |
| 2026-04-20 03:19 | 41.62613 | -91.68589 | 3471 ft | 99 kts | 272° |
| 2026-04-20 03:20 | 41.62522 | -91.69498 | 3600 ft | 99 kts | 272° |
| 2026-04-20 03:20 | 41.62432 | -91.70399 | 3726 ft | 97 kts | 273° |
| 2026-04-20 03:20 | 41.62342 | -91.71283 | 3857 ft | 95 kts | 273° |
| 2026-04-20 03:20 | 41.62255 | -91.72178 | 3886 ft | 99 kts | 272° |
| 2026-04-20 03:21 | 41.62166 | -91.73068 | 3881 ft | 94 kts | 272° |
| 2026-04-20 03:21 | 41.62079 | -91.73911 | 3887 ft | 90 kts | 273° |
| 2026-04-20 03:21 | 41.61996 | -91.74732 | 3884 ft | 88 kts | 273° |
| 2026-04-20 03:21 | 41.61917 | -91.75524 | 3886 ft | 85 kts | 273° |
| 2026-04-20 03:22 | 41.61837 | -91.76317 | 3885 ft | 88 kts | 273° |
| 2026-04-20 03:22 | 41.61757 | -91.77134 | 3899 ft | 90 kts | 272° |
| 2026-04-20 03:22 | 41.61673 | -91.77967 | 3907 ft | 91 kts | 272° |
| 2026-04-20 03:22 | 41.61587 | -91.78830 | 3895 ft | 93 kts | 272° |
| 2026-04-20 03:23 | 41.61500 | -91.79687 | 3893 ft | 93 kts | 273° |
| 2026-04-20 03:23 | 41.61412 | -91.80532 | 3887 ft | 90 kts | 273° |
| 2026-04-20 03:23 | 41.61330 | -91.81349 | 3887 ft | 88 kts | 273° |
| 2026-04-20 03:23 | 41.61249 | -91.82146 | 3888 ft | 85 kts | 273° |
| 2026-04-20 03:24 | 41.61170 | -91.82933 | 3892 ft | 86 kts | 272° |
| 2026-04-20 03:24 | 41.61090 | -91.83733 | 3893 ft | 88 kts | 272° |
| 2026-04-20 03:24 | 41.61009 | -91.84543 | 3910 ft | 90 kts | 272° |
| 2026-04-20 03:24 | 41.60920 | -91.85399 | 3898 ft | 93 kts | 272° |
| 2026-04-20 03:25 | 41.60835 | -91.86243 | 3895 ft | 91 kts | 272° |
| 2026-04-20 03:25 | 41.60750 | -91.87079 | 3890 ft | 91 kts | 272° |
| 2026-04-20 03:25 | 41.60667 | -91.87922 | 3900 ft | 92 kts | 271° |
| 2026-04-20 03:25 | 41.60578 | -91.88757 | 3901 ft | 89 kts | 272° |
| 2026-04-20 03:26 | 41.60494 | -91.89576 | 3900 ft | 89 kts | 273° |
| 2026-04-20 03:26 | 41.60411 | -91.90390 | 3900 ft | 88 kts | 273° |
| 2026-04-20 03:26 | 41.60327 | -91.91211 | 3894 ft | 92 kts | 274° |
| 2026-04-20 03:26 | 41.60243 | -91.92045 | 3898 ft | 89 kts | 274° |
| 2026-04-20 03:27 | 41.60160 | -91.92865 | 3898 ft | 89 kts | 274° |
| 2026-04-20 03:27 | 41.60076 | -91.93719 | 3917 ft | 97 kts | 271° |
| 2026-04-20 03:27 | 41.59985 | -91.94629 | 3917 ft | 101 kts | 272° |
| 2026-04-20 03:27 | 41.59888 | -91.95529 | 3910 ft | 98 kts | 272° |
| 2026-04-20 03:28 | 41.59796 | -91.96441 | 3911 ft | 99 kts | 272° |
| 2026-04-20 03:28 | 41.59698 | -91.97346 | 3923 ft | 98 kts | 272° |
| 2026-04-20 03:28 | 41.59512 | -91.99207 | 3909 ft | 101 kts | 272° |
| 2026-04-20 03:29 | 41.59411 | -92.00140 | 3901 ft | 100 kts | 272° |
| 2026-04-20 03:29 | 41.59319 | -92.01075 | 3905 ft | 102 kts | 272° |
| 2026-04-20 03:29 | 41.59224 | -92.01993 | 3898 ft | 98 kts | 273° |
| 2026-04-20 03:29 | 41.59133 | -92.02870 | 3899 ft | 94 kts | 273° |
| 2026-04-20 03:30 | 41.59044 | -92.03722 | 3895 ft | 91 kts | 274° |
| 2026-04-20 03:30 | 41.58958 | -92.04558 | 3892 ft | 92 kts | 274° |
| 2026-04-20 03:30 | 41.58872 | -92.05383 | 3898 ft | 88 kts | 274° |
| 2026-04-20 03:30 | 41.58788 | -92.06199 | 3900 ft | 89 kts | 273° |
| 2026-04-20 03:31 | 41.58703 | -92.07023 | 3915 ft | 90 kts | 273° |
| 2026-04-20 03:31 | 41.58617 | -92.07895 | 3919 ft | 98 kts | 272° |
| 2026-04-20 03:31 | 41.58522 | -92.08781 | 3922 ft | 96 kts | 273° |
| 2026-04-20 03:31 | 41.58431 | -92.09685 | 3930 ft | 99 kts | 271° |
| 2026-04-20 03:32 | 41.58332 | -92.10615 | 3906 ft | 99 kts | 272° |
| 2026-04-20 03:32 | 41.58242 | -92.11508 | 3903 ft | 95 kts | 272° |
| 2026-04-20 03:32 | 41.58148 | -92.12380 | 3900 ft | 94 kts | 273° |
| 2026-04-20 03:32 | 41.58059 | -92.13233 | 3902 ft | 92 kts | 273° |
| 2026-04-20 03:33 | 41.57968 | -92.14105 | 3907 ft | 95 kts | 272° |
| 2026-04-20 03:33 | 41.57879 | -92.14988 | 3910 ft | 98 kts | 273° |
| 2026-04-20 03:33 | 41.57787 | -92.15913 | 3902 ft | 100 kts | 272° |
| 2026-04-20 03:33 | 41.57685 | -92.16853 | 3917 ft | 105 kts | 272° |
| 2026-04-20 03:34 | 41.57584 | -92.17837 | 3900 ft | 107 kts | 272° |
| 2026-04-20 03:34 | 41.57478 | -92.18788 | 3897 ft | 102 kts | 272° |
| 2026-04-20 03:34 | 41.57383 | -92.19708 | 3910 ft | 100 kts | 272° |
| 2026-04-20 03:34 | 41.57290 | -92.20642 | 3908 ft | 103 kts | 272° |
| 2026-04-20 03:35 | 41.57190 | -92.21584 | 3899 ft | 100 kts | 272° |
| 2026-04-20 03:35 | 41.57092 | -92.22506 | 3905 ft | 101 kts | 273° |
| 2026-04-20 03:35 | 41.56995 | -92.23440 | 3908 ft | 102 kts | 272° |
| 2026-04-20 03:35 | 41.56897 | -92.24386 | 3913 ft | 104 kts | 272° |
| 2026-04-20 03:36 | 41.56794 | -92.25343 | 3903 ft | 102 kts | 271° |
| 2026-04-20 03:36 | 41.56695 | -92.26269 | 3912 ft | 101 kts | 274° |
| 2026-04-20 03:36 | 41.56599 | -92.27223 | 3915 ft | 106 kts | 272° |
| 2026-04-20 03:36 | 41.56497 | -92.28200 | 3906 ft | 105 kts | 272° |
| 2026-04-20 03:37 | 41.56393 | -92.29165 | 3906 ft | 105 kts | 272° |
| 2026-04-20 03:37 | 41.56291 | -92.30106 | 3906 ft | 100 kts | 273° |
| 2026-04-20 03:37 | 41.56195 | -92.31007 | 3911 ft | 96 kts | 272° |
| 2026-04-20 03:37 | 41.56102 | -92.31891 | 3921 ft | 98 kts | 273° |
| 2026-04-20 03:38 | 41.56008 | -92.32799 | 3913 ft | 98 kts | 272° |
| 2026-04-20 03:38 | 41.55912 | -92.33697 | 3919 ft | 97 kts | 272° |
| 2026-04-20 03:38 | 41.55816 | -92.34603 | 3923 ft | 100 kts | 273° |
| 2026-04-20 03:38 | 41.55720 | -92.35520 | 3920 ft | 101 kts | 272° |
| 2026-04-20 03:39 | 41.55620 | -92.36443 | 3914 ft | 97 kts | 273° |
| 2026-04-20 03:39 | 41.55527 | -92.37316 | 3910 ft | 95 kts | 274° |
| 2026-04-20 03:39 | 41.55435 | -92.38190 | 3916 ft | 93 kts | 274° |
| 2026-04-20 03:39 | 41.55344 | -92.39053 | 3926 ft | 96 kts | 274° |
| 2026-04-20 03:40 | 41.55250 | -92.39952 | 3929 ft | 98 kts | 273° |
| 2026-04-20 03:40 | 41.55152 | -92.40861 | 3933 ft | 99 kts | 274° |
| 2026-04-20 03:40 | 41.55056 | -92.41776 | 3922 ft | 98 kts | 272° |
| 2026-04-20 03:40 | 41.54959 | -92.42684 | 3923 ft | 99 kts | 273° |
| 2026-04-20 03:41 | 41.54861 | -92.43597 | 3930 ft | 101 kts | 272° |
| 2026-04-20 03:41 | 41.54761 | -92.44527 | 3924 ft | 100 kts | 271° |
| 2026-04-20 03:41 | 41.54664 | -92.45448 | 3919 ft | 100 kts | 271° |
| 2026-04-20 03:41 | 41.54564 | -92.46352 | 3924 ft | 97 kts | 272° |
| 2026-04-20 03:42 | 41.54469 | -92.47246 | 3923 ft | 97 kts | 273° |
| 2026-04-20 03:42 | 41.54373 | -92.48134 | 3935 ft | 95 kts | 272° |
| 2026-04-20 03:42 | 41.54281 | -92.49019 | 3922 ft | 96 kts | 273° |
| 2026-04-20 03:42 | 41.54187 | -92.49912 | 3925 ft | 98 kts | 273° |
| 2026-04-20 03:43 | 41.54088 | -92.50809 | 3931 ft | 97 kts | 274° |
| 2026-04-20 03:43 | 41.53991 | -92.51735 | 3934 ft | 105 kts | 272° |
| 2026-04-20 03:43 | 41.53887 | -92.52716 | 3922 ft | 105 kts | 271° |
| 2026-04-20 03:43 | 41.53783 | -92.53653 | 3920 ft | 100 kts | 272° |
| 2026-04-20 03:44 | 41.53684 | -92.54556 | 3922 ft | 98 kts | 273° |
| 2026-04-20 03:44 | 41.53590 | -92.55471 | 3928 ft | 101 kts | 272° |
| 2026-04-20 03:44 | 41.53485 | -92.56396 | 3929 ft | 101 kts | 273° |
| 2026-04-20 03:44 | 41.53387 | -92.57337 | 3925 ft | 101 kts | 272° |
| 2026-04-20 03:45 | 41.53287 | -92.58243 | 3922 ft | 96 kts | 272° |
| 2026-04-20 03:45 | 41.53193 | -92.59107 | 3922 ft | 92 kts | 272° |
| 2026-04-20 03:45 | 41.53104 | -92.59939 | 3925 ft | 90 kts | 273° |
| 2026-04-20 03:45 | 41.53010 | -92.60775 | 3933 ft | 93 kts | 272° |
| 2026-04-20 03:46 | 41.52923 | -92.61618 | 3939 ft | 92 kts | 272° |
| 2026-04-20 03:46 | 41.52832 | -92.62470 | 3925 ft | 92 kts | 273° |
| 2026-04-20 03:46 | 41.52737 | -92.63310 | 3936 ft | 92 kts | 273° |
| 2026-04-20 03:46 | 41.52647 | -92.64175 | 3934 ft | 95 kts | 272° |
| 2026-04-20 03:47 | 41.52552 | -92.65056 | 3936 ft | 97 kts | 272° |
| 2026-04-20 03:47 | 41.52453 | -92.65937 | 3944 ft | 96 kts | 271° |
| 2026-04-20 03:47 | 41.52361 | -92.66827 | 3940 ft | 97 kts | 271° |
| 2026-04-20 03:47 | 41.52261 | -92.67731 | 3929 ft | 97 kts | 272° |
| 2026-04-20 03:48 | 41.52162 | -92.68605 | 3928 ft | 93 kts | 273° |
| 2026-04-20 03:48 | 41.52069 | -92.69476 | 3936 ft | 97 kts | 272° |
| 2026-04-20 03:48 | 41.51970 | -92.70357 | 3938 ft | 95 kts | 272° |
| 2026-04-20 03:48 | 41.51878 | -92.71221 | 3941 ft | 94 kts | 272° |
| 2026-04-20 03:49 | 41.51781 | -92.72088 | 3946 ft | 94 kts | 272° |
| 2026-04-20 03:49 | 41.51690 | -92.72952 | 3940 ft | 94 kts | 273° |
| 2026-04-20 03:49 | 41.51595 | -92.73809 | 3949 ft | 97 kts | 273° |
| 2026-04-20 03:49 | 41.51497 | -92.74701 | 3952 ft | 97 kts | 272° |
| 2026-04-20 03:50 | 41.51400 | -92.75587 | 3944 ft | 95 kts | 272° |
| 2026-04-20 03:50 | 41.51305 | -92.76444 | 3940 ft | 93 kts | 273° |
| 2026-04-20 03:50 | 41.51213 | -92.77287 | 3941 ft | 91 kts | 273° |
| 2026-04-20 03:50 | 41.51120 | -92.78129 | 3937 ft | 91 kts | 273° |
| 2026-04-20 03:51 | 41.51029 | -92.78974 | 3940 ft | 93 kts | 273° |
| 2026-04-20 03:51 | 41.50935 | -92.79822 | 3941 ft | 92 kts | 272° |
| 2026-04-20 03:51 | 41.50842 | -92.80677 | 3944 ft | 95 kts | 272° |
| 2026-04-20 03:51 | 41.50745 | -92.81556 | 3934 ft | 95 kts | 272° |
| 2026-04-20 03:52 | 41.50649 | -92.82430 | 3935 ft | 96 kts | 273° |
| 2026-04-20 03:52 | 41.50551 | -92.83297 | 3928 ft | 93 kts | 273° |
| 2026-04-20 03:52 | 41.50458 | -92.84141 | 3930 ft | 91 kts | 273° |
| 2026-04-20 03:52 | 41.50365 | -92.84985 | 3937 ft | 94 kts | 273° |
| 2026-04-20 03:53 | 41.50270 | -92.85854 | 3933 ft | 94 kts | 272° |
| 2026-04-20 03:53 | 41.50176 | -92.86703 | 3934 ft | 91 kts | 273° |
| 2026-04-20 03:53 | 41.50084 | -92.87534 | 3937 ft | 91 kts | 273° |
| 2026-04-20 03:53 | 41.49990 | -92.88377 | 3938 ft | 92 kts | 272° |
| 2026-04-20 03:54 | 41.49898 | -92.89230 | 3942 ft | 94 kts | 272° |
| 2026-04-20 03:54 | 41.49801 | -92.90098 | 3944 ft | 95 kts | 273° |
| 2026-04-20 03:54 | 41.49703 | -92.90972 | 3943 ft | 96 kts | 273° |
| 2026-04-20 03:54 | 41.49608 | -92.91855 | 3945 ft | 97 kts | 272° |
| 2026-04-20 03:55 | 41.49506 | -92.92752 | 3948 ft | 99 kts | 271° |
| 2026-04-20 03:55 | 41.49406 | -92.93660 | 3941 ft | 99 kts | 271° |
| 2026-04-20 03:55 | 41.49305 | -92.94542 | 3945 ft | 97 kts | 271° |
| 2026-04-20 03:55 | 41.49208 | -92.95423 | 3939 ft | 95 kts | 271° |
| 2026-04-20 03:56 | 41.49110 | -92.96304 | 3938 ft | 97 kts | 272° |
| 2026-04-20 03:56 | 41.49010 | -92.97198 | 3942 ft | 98 kts | 271° |
| 2026-04-20 03:56 | 41.48909 | -92.98095 | 3946 ft | 99 kts | 272° |
| 2026-04-20 03:56 | 41.48809 | -92.99011 | 3947 ft | 101 kts | 271° |
| 2026-04-20 03:57 | 41.48706 | -92.99945 | 3953 ft | 102 kts | 271° |
| 2026-04-20 03:57 | 41.48599 | -93.00873 | 3954 ft | 101 kts | 271° |
| 2026-04-20 03:57 | 41.48496 | -93.01801 | 3953 ft | 102 kts | 271° |
| 2026-04-20 03:57 | 41.48391 | -93.02731 | 3963 ft | 102 kts | 271° |
| 2026-04-20 03:58 | 41.48289 | -93.03668 | 3959 ft | 102 kts | 271° |
| 2026-04-20 03:58 | 41.48182 | -93.04596 | 3958 ft | 101 kts | 271° |
| 2026-04-20 03:58 | 41.48080 | -93.05515 | 3948 ft | 101 kts | 271° |
| 2026-04-20 03:58 | 41.47974 | -93.06448 | 3956 ft | 101 kts | 271° |
| 2026-04-20 03:59 | 41.47871 | -93.07381 | 3959 ft | 102 kts | 270° |
| 2026-04-20 03:59 | 41.47764 | -93.08335 | 3967 ft | 106 kts | 271° |
| 2026-04-20 03:59 | 41.47653 | -93.09326 | 3966 ft | 110 kts | 271° |
| 2026-04-20 03:59 | 41.47539 | -93.10322 | 3960 ft | 106 kts | 271° |
| 2026-04-20 04:00 | 41.47431 | -93.11284 | 3950 ft | 104 kts | 271° |
| 2026-04-20 04:00 | 41.47323 | -93.12219 | 3951 ft | 100 kts | 271° |
| 2026-04-20 04:00 | 41.47220 | -93.13147 | 3949 ft | 101 kts | 271° |
| 2026-04-20 04:00 | 41.47112 | -93.14070 | 3952 ft | 102 kts | 271° |
| 2026-04-20 04:01 | 41.47010 | -93.15014 | 3959 ft | 104 kts | 271° |
| 2026-04-20 04:01 | 41.46903 | -93.15975 | 3954 ft | 105 kts | 271° |
| 2026-04-20 04:01 | 41.46792 | -93.16947 | 3955 ft | 107 kts | 271° |
| 2026-04-20 04:01 | 41.46679 | -93.17925 | 3960 ft | 107 kts | 270° |
| 2026-04-20 04:02 | 41.46569 | -93.18926 | 3945 ft | 110 kts | 270° |
| 2026-04-20 04:02 | 41.46452 | -93.19906 | 3942 ft | 104 kts | 271° |
| 2026-04-20 04:02 | 41.46345 | -93.20844 | 3943 ft | 101 kts | 272° |
| 2026-04-20 04:02 | 41.46241 | -93.21750 | 3942 ft | 97 kts | 273° |
| 2026-04-20 04:03 | 41.46141 | -93.22632 | 3944 ft | 96 kts | 272° |
| 2026-04-20 04:03 | 41.46042 | -93.23513 | 3945 ft | 97 kts | 272° |
| 2026-04-20 04:03 | 41.45942 | -93.24390 | 3944 ft | 98 kts | 272° |
| 2026-04-20 04:03 | 41.45840 | -93.25290 | 3947 ft | 99 kts | 272° |
| 2026-04-20 04:04 | 41.45737 | -93.26208 | 3947 ft | 101 kts | 271° |
| 2026-04-20 04:04 | 41.45630 | -93.27140 | 3958 ft | 103 kts | 271° |
| 2026-04-20 04:04 | 41.45522 | -93.28075 | 3951 ft | 100 kts | 271° |
| 2026-04-20 04:04 | 41.45417 | -93.28986 | 3948 ft | 99 kts | 272° |
| 2026-04-20 04:05 | 41.45313 | -93.29885 | 3955 ft | 99 kts | 272° |
| 2026-04-20 04:05 | 41.45210 | -93.30793 | 3952 ft | 99 kts | 272° |
| 2026-04-20 04:05 | 41.45106 | -93.31696 | 3945 ft | 98 kts | 271° |
| 2026-04-20 04:05 | 41.45005 | -93.32569 | 3946 ft | 93 kts | 271° |
| 2026-04-20 04:06 | 41.44907 | -93.33434 | 3960 ft | 98 kts | 271° |
| 2026-04-20 04:06 | 41.44804 | -93.34336 | 3954 ft | 98 kts | 271° |
| 2026-04-20 04:06 | 41.44700 | -93.35245 | 3961 ft | 101 kts | 271° |
| 2026-04-20 04:06 | 41.44595 | -93.36158 | 3956 ft | 98 kts | 272° |
| 2026-04-20 04:07 | 41.44526 | -93.36743 | 3949 ft | 95 kts | 271° |
| 2026-04-20 04:07 | 41.44427 | -93.37611 | 3953 ft | 95 kts | 272° |
| 2026-04-20 04:07 | 41.44325 | -93.38496 | 3958 ft | 98 kts | 271° |
| 2026-04-20 04:07 | 41.44222 | -93.39401 | 3963 ft | 100 kts | 271° |
| 2026-04-20 04:08 | 41.44114 | -93.40317 | 3962 ft | 100 kts | 271° |
| 2026-04-20 04:08 | 41.44009 | -93.41238 | 3962 ft | 101 kts | 270° |
| 2026-04-20 04:08 | 41.43903 | -93.42166 | 3962 ft | 102 kts | 270° |
| 2026-04-20 04:08 | 41.43794 | -93.43086 | 3960 ft | 100 kts | 271° |
| 2026-04-20 04:09 | 41.43689 | -93.44001 | 3959 ft | 100 kts | 272° |
| 2026-04-20 04:09 | 41.43582 | -93.44905 | 3961 ft | 98 kts | 271° |
| 2026-04-20 04:09 | 41.43480 | -93.45813 | 3969 ft | 101 kts | 272° |
| 2026-04-20 04:09 | 41.43373 | -93.46755 | 3965 ft | 103 kts | 271° |
| 2026-04-20 04:10 | 41.43261 | -93.47698 | 3968 ft | 104 kts | 271° |
| 2026-04-20 04:10 | 41.43151 | -93.48649 | 3954 ft | 103 kts | 270° |
| 2026-04-20 04:10 | 41.43041 | -93.49568 | 3945 ft | 99 kts | 271° |
| 2026-04-20 04:10 | 41.42937 | -93.50470 | 3957 ft | 101 kts | 271° |
| 2026-04-20 04:11 | 41.42829 | -93.51418 | 3971 ft | 106 kts | 271° |
| 2026-04-20 04:11 | 41.42715 | -93.52392 | 3961 ft | 105 kts | 270° |
| 2026-04-20 04:11 | 41.42603 | -93.53327 | 3961 ft | 99 kts | 271° |
| 2026-04-20 04:11 | 41.42499 | -93.54219 | 3965 ft | 96 kts | 271° |
| 2026-04-20 04:12 | 41.42397 | -93.55116 | 3957 ft | 98 kts | 272° |
| 2026-04-20 04:12 | 41.42289 | -93.56002 | 3957 ft | 95 kts | 272° |
| 2026-04-20 04:12 | 41.42192 | -93.56897 | 3962 ft | 99 kts | 272° |
| 2026-04-20 04:12 | 41.42082 | -93.57799 | 3963 ft | 99 kts | 272° |
| 2026-04-20 04:13 | 41.41976 | -93.58702 | 3958 ft | 98 kts | 272° |
| 2026-04-20 04:13 | 41.41870 | -93.59589 | 3966 ft | 97 kts | 272° |
| 2026-04-20 04:13 | 41.41768 | -93.60491 | 3957 ft | 98 kts | 272° |
| 2026-04-20 04:13 | 41.41662 | -93.61373 | 3952 ft | 95 kts | 272° |
| 2026-04-20 04:14 | 41.41562 | -93.62229 | 3957 ft | 93 kts | 272° |
| 2026-04-20 04:14 | 41.41461 | -93.63084 | 3964 ft | 95 kts | 273° |
| 2026-04-20 04:14 | 41.41357 | -93.63972 | 3960 ft | 96 kts | 273° |
| 2026-04-20 04:14 | 41.41254 | -93.64853 | 3958 ft | 95 kts | 273° |
| 2026-04-20 04:15 | 41.41152 | -93.65710 | 3953 ft | 93 kts | 274° |
| 2026-04-20 04:15 | 41.41050 | -93.66570 | 3965 ft | 97 kts | 273° |
| 2026-04-20 04:15 | 41.40950 | -93.67455 | 3964 ft | 98 kts | 272° |
| 2026-04-20 04:15 | 41.40840 | -93.68356 | 3960 ft | 96 kts | 272° |
| 2026-04-20 04:16 | 41.40736 | -93.69254 | 3965 ft | 100 kts | 271° |
| 2026-04-20 04:16 | 41.40623 | -93.70157 | 3960 ft | 99 kts | 272° |
| 2026-04-20 04:16 | 41.40521 | -93.71086 | 3965 ft | 102 kts | 272° |
| 2026-04-20 04:16 | 41.40410 | -93.72025 | 3960 ft | 103 kts | 272° |
| 2026-04-20 04:17 | 41.40299 | -93.72960 | 3958 ft | 103 kts | 271° |
| 2026-04-20 04:17 | 41.40186 | -93.73892 | 3962 ft | 101 kts | 271° |
| 2026-04-20 04:17 | 41.40077 | -93.74807 | 3954 ft | 99 kts | 272° |
| 2026-04-20 04:17 | 41.40061 | -93.75701 | 3964 ft | 97 kts | 279° |
| 2026-04-20 04:18 | 41.40053 | -93.76616 | 3961 ft | 98 kts | 279° |
| 2026-04-20 04:18 | 41.40046 | -93.77522 | 3955 ft | 97 kts | 279° |
| 2026-04-20 04:18 | 41.40037 | -93.78410 | 3953 ft | 94 kts | 279° |
| 2026-04-20 04:18 | 41.40031 | -93.79266 | 3966 ft | 93 kts | 279° |
| 2026-04-20 04:19 | 41.40027 | -93.80162 | 3966 ft | 99 kts | 279° |
| 2026-04-20 04:19 | 41.40019 | -93.81066 | 3964 ft | 97 kts | 279° |
| 2026-04-20 04:19 | 41.40013 | -93.81964 | 3955 ft | 96 kts | 279° |
| 2026-04-20 04:19 | 41.40006 | -93.82848 | 3957 ft | 94 kts | 279° |
| 2026-04-20 04:20 | 41.39999 | -93.83721 | 3957 ft | 94 kts | 279° |
| 2026-04-20 04:20 | 41.39992 | -93.84591 | 3959 ft | 94 kts | 279° |
| 2026-04-20 04:20 | 41.39986 | -93.85457 | 3957 ft | 93 kts | 279° |
| 2026-04-20 04:20 | 41.39980 | -93.86326 | 3967 ft | 96 kts | 279° |
| 2026-04-20 04:21 | 41.39975 | -93.87230 | 3963 ft | 98 kts | 277° |
| 2026-04-20 04:21 | 41.39965 | -93.88124 | 3960 ft | 96 kts | 278° |
| 2026-04-20 04:21 | 41.39958 | -93.89003 | 3961 ft | 94 kts | 279° |
| 2026-04-20 04:21 | 41.39951 | -93.89875 | 3958 ft | 94 kts | 279° |
| 2026-04-20 04:22 | 41.39941 | -93.90743 | 3971 ft | 96 kts | 278° |
| 2026-04-20 04:22 | 41.39941 | -93.91651 | 3962 ft | 98 kts | 278° |
| 2026-04-20 04:22 | 41.39931 | -93.92556 | 3972 ft | 100 kts | 277° |
| 2026-04-20 04:22 | 41.39924 | -93.93493 | 3974 ft | 102 kts | 276° |
| 2026-04-20 04:23 | 41.39914 | -93.94442 | 3962 ft | 101 kts | 277° |
| 2026-04-20 04:23 | 41.39905 | -93.95395 | 3968 ft | 105 kts | 277° |
| 2026-04-20 04:23 | 41.39897 | -93.96355 | 3974 ft | 103 kts | 277° |
| 2026-04-20 04:23 | 41.39888 | -93.97331 | 3965 ft | 105 kts | 277° |
| 2026-04-20 04:24 | 41.39882 | -93.98286 | 3956 ft | 102 kts | 277° |
| 2026-04-20 04:24 | 41.39875 | -93.99236 | 3971 ft | 105 kts | 277° |
| 2026-04-20 04:24 | 41.39864 | -94.00200 | 3959 ft | 102 kts | 277° |
| 2026-04-20 04:24 | 41.39859 | -94.01127 | 3955 ft | 98 kts | 279° |
| 2026-04-20 04:25 | 41.39846 | -94.02027 | 3957 ft | 95 kts | 277° |
| 2026-04-20 04:25 | 41.39838 | -94.02910 | 3966 ft | 98 kts | 279° |
| 2026-04-20 04:25 | 41.39829 | -94.03808 | 3960 ft | 96 kts | 278° |
| 2026-04-20 04:25 | 41.39822 | -94.04683 | 3964 ft | 94 kts | 279° |
| 2026-04-20 04:26 | 41.39816 | -94.05578 | 3963 ft | 98 kts | 278° |
| 2026-04-20 04:26 | 41.39806 | -94.06463 | 3962 ft | 98 kts | 279° |
| 2026-04-20 04:26 | 41.39798 | -94.07367 | 3956 ft | 96 kts | 276° |
| 2026-04-20 04:26 | 41.39787 | -94.08258 | 3965 ft | 99 kts | 277° |
| 2026-04-20 04:27 | 41.39779 | -94.09187 | 3973 ft | 102 kts | 276° |
| 2026-04-20 04:27 | 41.39772 | -94.10136 | 3976 ft | 103 kts | 276° |
| 2026-04-20 04:27 | 41.39763 | -94.11093 | 3969 ft | 104 kts | 277° |
| 2026-04-20 04:27 | 41.39751 | -94.12042 | 3968 ft | 100 kts | 278° |
| 2026-04-20 04:28 | 41.39741 | -94.12946 | 3962 ft | 98 kts | 278° |
| 2026-04-20 04:28 | 41.39732 | -94.13845 | 3959 ft | 97 kts | 278° |
| 2026-04-20 04:28 | 41.39724 | -94.14735 | 3961 ft | 96 kts | 278° |
| 2026-04-20 04:28 | 41.39714 | -94.15622 | 3963 ft | 96 kts | 278° |
| 2026-04-20 04:29 | 41.39706 | -94.16515 | 3965 ft | 96 kts | 279° |
| 2026-04-20 04:29 | 41.39696 | -94.17402 | 3961 ft | 96 kts | 279° |
| 2026-04-20 04:29 | 41.39686 | -94.18285 | 3962 ft | 95 kts | 279° |
| 2026-04-20 04:29 | 41.39677 | -94.19166 | 3964 ft | 95 kts | 279° |
| 2026-04-20 04:30 | 41.39667 | -94.20045 | 3965 ft | 94 kts | 278° |
| 2026-04-20 04:30 | 41.39658 | -94.20922 | 3965 ft | 95 kts | 278° |
| 2026-04-20 04:30 | 41.39649 | -94.21808 | 3967 ft | 96 kts | 278° |
| 2026-04-20 04:30 | 41.39640 | -94.22692 | 3960 ft | 95 kts | 276° |
| 2026-04-20 04:31 | 41.39631 | -94.23559 | 3966 ft | 92 kts | 277° |
| 2026-04-20 04:31 | 41.39620 | -94.24411 | 3967 ft | 92 kts | 278° |
| 2026-04-20 04:31 | 41.39611 | -94.25264 | 3970 ft | 93 kts | 278° |
| 2026-04-20 04:31 | 41.39602 | -94.26134 | 3973 ft | 95 kts | 278° |
| 2026-04-20 04:32 | 41.39592 | -94.27015 | 3975 ft | 96 kts | 278° |
| 2026-04-20 04:32 | 41.39582 | -94.27908 | 3979 ft | 97 kts | 278° |
| 2026-04-20 04:32 | 41.39574 | -94.28814 | 3978 ft | 98 kts | 278° |
| 2026-04-20 04:32 | 41.39560 | -94.29723 | 3980 ft | 99 kts | 277° |
| 2026-04-20 04:33 | 41.39552 | -94.30638 | 3968 ft | 97 kts | 279° |
| 2026-04-20 04:33 | 41.39541 | -94.31522 | 3965 ft | 94 kts | 279° |
| 2026-04-20 04:33 | 41.39531 | -94.32394 | 3962 ft | 95 kts | 278° |
| 2026-04-20 04:33 | 41.39519 | -94.33273 | 3962 ft | 95 kts | 278° |
| 2026-04-20 04:34 | 41.39509 | -94.34144 | 3968 ft | 94 kts | 278° |
| 2026-04-20 04:34 | 41.39499 | -94.35022 | 3972 ft | 95 kts | 278° |
| 2026-04-20 04:34 | 41.39489 | -94.35912 | 3971 ft | 97 kts | 277° |
| 2026-04-20 04:34 | 41.39477 | -94.36807 | 3971 ft | 97 kts | 277° |
| 2026-04-20 04:35 | 41.39466 | -94.37709 | 3975 ft | 99 kts | 277° |
| 2026-04-20 04:35 | 41.39455 | -94.38647 | 3977 ft | 103 kts | 277° |
| 2026-04-20 04:35 | 41.39443 | -94.39597 | 3970 ft | 101 kts | 277° |
| 2026-04-20 04:35 | 41.39431 | -94.40542 | 3977 ft | 104 kts | 279° |
| 2026-04-20 04:36 | 41.39409 | -94.42477 | 3966 ft | 103 kts | 278° |
| 2026-04-20 04:36 | 41.39397 | -94.43420 | 3963 ft | 102 kts | 278° |
| 2026-04-20 04:36 | 41.39384 | -94.44350 | 3959 ft | 100 kts | 278° |
| 2026-04-20 04:37 | 41.39370 | -94.45261 | 3964 ft | 97 kts | 278° |
| 2026-04-20 04:37 | 41.39355 | -94.46140 | 3984 ft | 96 kts | 277° |
| 2026-04-20 04:37 | 41.39355 | -94.47069 | 3961 ft | 101 kts | 277° |
| 2026-04-20 04:37 | 41.39335 | -94.48019 | 3963 ft | 104 kts | 278° |
| 2026-04-20 04:38 | 41.39320 | -94.48968 | 3962 ft | 101 kts | 278° |
| 2026-04-20 04:38 | 41.39306 | -94.49893 | 3977 ft | 101 kts | 277° |
| 2026-04-20 04:38 | 41.39301 | -94.50861 | 3980 ft | 107 kts | 277° |
| 2026-04-20 04:38 | 41.39285 | -94.51824 | 3961 ft | 101 kts | 278° |
| 2026-04-20 04:39 | 41.39271 | -94.52742 | 3964 ft | 97 kts | 278° |
| 2026-04-20 04:39 | 41.39257 | -94.53654 | 3973 ft | 102 kts | 278° |
| 2026-04-20 04:39 | 41.39247 | -94.54591 | 3957 ft | 102 kts | 277° |
| 2026-04-20 04:39 | 41.39235 | -94.55505 | 3963 ft | 96 kts | 277° |
| 2026-04-20 04:40 | 41.39221 | -94.56417 | 3975 ft | 104 kts | 278° |
| 2026-04-20 04:40 | 41.39210 | -94.57392 | 3968 ft | 107 kts | 277° |
| 2026-04-20 04:40 | 41.39202 | -94.58366 | 3953 ft | 104 kts | 277° |
| 2026-04-20 04:40 | 41.39177 | -94.59312 | 3954 ft | 102 kts | 278° |
| 2026-04-20 04:41 | 41.39170 | -94.60282 | 3951 ft | 107 kts | 277° |
| 2026-04-20 04:41 | 41.39157 | -94.61253 | 3973 ft | 111 kts | 277° |
| 2026-04-20 04:41 | 41.39137 | -94.62301 | 3971 ft | 113 kts | 276° |
| 2026-04-20 04:41 | 41.39125 | -94.63320 | 3965 ft | 108 kts | 277° |
| 2026-04-20 04:42 | 41.39112 | -94.64332 | 3981 ft | 109 kts | 277° |
| 2026-04-20 04:42 | 41.39095 | -94.65346 | 3980 ft | 112 kts | 276° |
| 2026-04-20 04:42 | 41.39086 | -94.66371 | 3965 ft | 106 kts | 276° |
| 2026-04-20 04:42 | 41.39061 | -94.67319 | 3960 ft | 99 kts | 278° |
| 2026-04-20 04:43 | 41.39052 | -94.68268 | 3982 ft | 108 kts | 278° |
| 2026-04-20 04:43 | 41.39043 | -94.69291 | 3964 ft | 109 kts | 276° |
| 2026-04-20 04:43 | 41.39023 | -94.70283 | 3967 ft | 106 kts | 280° |
| 2026-04-20 04:43 | 41.39006 | -94.71252 | 3971 ft | 104 kts | 275° |
| 2026-04-20 04:44 | 41.38991 | -94.72210 | 3969 ft | 100 kts | 277° |
| 2026-04-20 04:44 | 41.38970 | -94.73121 | 3973 ft | 99 kts | 277° |
| 2026-04-20 04:44 | 41.38959 | -94.74023 | 3967 ft | 96 kts | 276° |
| 2026-04-20 04:44 | 41.38950 | -94.74929 | 3965 ft | 100 kts | 278° |
| 2026-04-20 04:45 | 41.38937 | -94.75812 | 3966 ft | 92 kts | 277° |
| 2026-04-20 04:45 | 41.38925 | -94.76694 | 3981 ft | 100 kts | 277° |
| 2026-04-20 04:45 | 41.38909 | -94.77637 | 3984 ft | 104 kts | 278° |
| 2026-04-20 04:45 | 41.38900 | -94.78592 | 3973 ft | 105 kts | 276° |
| 2026-04-20 04:46 | 41.38880 | -94.79569 | 3980 ft | 103 kts | 276° |
| 2026-04-20 04:46 | 41.38857 | -94.80482 | 3980 ft | 95 kts | 277° |
| 2026-04-20 04:46 | 41.38845 | -94.81339 | 4014 ft | 92 kts | 277° |
| 2026-04-20 04:46 | 41.38829 | -94.82246 | 4014 ft | 103 kts | 278° |
| 2026-04-20 04:47 | 41.38827 | -94.83225 | 3989 ft | 104 kts | 275° |
| 2026-04-20 04:47 | 41.38818 | -94.84172 | 4000 ft | 103 kts | 277° |
| 2026-04-20 04:47 | 41.38777 | -94.85128 | 3998 ft | 106 kts | 276° |
| 2026-04-20 04:47 | 41.38772 | -94.86122 | 4000 ft | 110 kts | 276° |
| 2026-04-20 04:48 | 41.38758 | -94.87149 | 3997 ft | 112 kts | 276° |
| 2026-04-20 04:48 | 41.38737 | -94.88172 | 3994 ft | 110 kts | 277° |
| 2026-04-20 04:48 | 41.38720 | -94.89173 | 4004 ft | 107 kts | 276° |
| 2026-04-20 04:48 | 41.38704 | -94.90175 | 4002 ft | 110 kts | 276° |
| 2026-04-20 04:49 | 41.38690 | -94.91202 | 4003 ft | 112 kts | 276° |
| 2026-04-20 04:49 | 41.38670 | -94.92231 | 3995 ft | 112 kts | 276° |
| 2026-04-20 04:49 | 41.38655 | -94.93247 | 3984 ft | 107 kts | 276° |
| 2026-04-20 04:49 | 41.38637 | -94.94206 | 3984 ft | 102 kts | 277° |
| 2026-04-20 04:50 | 41.38618 | -94.95137 | 4006 ft | 102 kts | 277° |
| 2026-04-20 04:50 | 41.38602 | -94.96067 | 3986 ft | 98 kts | 278° |
| 2026-04-20 04:50 | 41.38588 | -94.96966 | 3983 ft | 97 kts | 277° |
| 2026-04-20 04:50 | 41.38570 | -94.97886 | 4006 ft | 106 kts | 277° |
| 2026-04-20 04:51 | 41.38557 | -94.98867 | 3990 ft | 102 kts | 276° |
| 2026-04-20 04:51 | 41.38540 | -94.99774 | 3986 ft | 96 kts | 276° |
| 2026-04-20 04:51 | 41.38522 | -95.00639 | 3984 ft | 90 kts | 278° |
| 2026-04-20 04:51 | 41.38508 | -95.01458 | 3999 ft | 89 kts | 277° |
| 2026-04-20 04:52 | 41.38493 | -95.02304 | 3994 ft | 92 kts | 278° |
| 2026-04-20 04:52 | 41.38478 | -95.03172 | 3996 ft | 94 kts | 277° |
| 2026-04-20 04:52 | 41.38464 | -95.04042 | 3998 ft | 94 kts | 277° |
| 2026-04-20 04:52 | 41.38447 | -95.04904 | 3994 ft | 93 kts | 277° |
| 2026-04-20 04:53 | 41.38433 | -95.05770 | 3997 ft | 95 kts | 276° |
| 2026-04-20 04:53 | 41.38416 | -95.06635 | 3996 ft | 92 kts | 275° |
| 2026-04-20 04:53 | 41.38399 | -95.07494 | 4009 ft | 99 kts | 276° |
| 2026-04-20 04:53 | 41.38394 | -95.08115 | 4013 ft | 99 kts | 274° |
| 2026-04-20 04:54 | 41.38374 | -95.09078 | 4005 ft | 107 kts | 275° |
| 2026-04-20 04:54 | 41.38356 | -95.10077 | 3992 ft | 107 kts | 276° |
| 2026-04-20 04:54 | 41.38332 | -95.11041 | 4012 ft | 102 kts | 275° |
| 2026-04-20 04:54 | 41.38314 | -95.12013 | 3998 ft | 110 kts | 276° |
| 2026-04-20 04:55 | 41.38306 | -95.13046 | 3973 ft | 112 kts | 275° |
| 2026-04-20 04:55 | 41.38279 | -95.14031 | 3995 ft | 104 kts | 275° |
| 2026-04-20 04:55 | 41.38262 | -95.15008 | 4011 ft | 105 kts | 275° |
| 2026-04-20 04:55 | 41.38245 | -95.16015 | 4000 ft | 111 kts | 275° |
| 2026-04-20 04:56 | 41.38225 | -95.17031 | 3986 ft | 107 kts | 275° |
| 2026-04-20 04:56 | 41.38204 | -95.17987 | 3984 ft | 101 kts | 275° |
| 2026-04-20 04:56 | 41.38186 | -95.18928 | 4001 ft | 106 kts | 277° |
| 2026-04-20 04:56 | 41.38174 | -95.19946 | 3978 ft | 112 kts | 275° |
| 2026-04-20 04:57 | 41.38147 | -95.20966 | 3985 ft | 113 kts | 276° |
| 2026-04-20 04:57 | 41.38127 | -95.21981 | 3988 ft | 106 kts | 275° |
| 2026-04-20 04:57 | 41.38105 | -95.22943 | 3997 ft | 104 kts | 276° |
| 2026-04-20 04:57 | 41.38090 | -95.23916 | 4000 ft | 106 kts | 276° |
| 2026-04-20 04:58 | 41.38069 | -95.24877 | 3984 ft | 99 kts | 275° |
| 2026-04-20 04:58 | 41.38051 | -95.25767 | 3988 ft | 93 kts | 274° |
| 2026-04-20 04:58 | 41.38033 | -95.26619 | 4001 ft | 95 kts | 275° |
| 2026-04-20 04:58 | 41.38017 | -95.27512 | 4000 ft | 100 kts | 276° |
| 2026-04-20 04:59 | 41.38000 | -95.28409 | 3983 ft | 94 kts | 276° |
| 2026-04-20 04:59 | 41.37981 | -95.29282 | 3996 ft | 96 kts | 277° |
| 2026-04-20 04:59 | 41.37965 | -95.30177 | 3995 ft | 97 kts | 276° |
| 2026-04-20 04:59 | 41.37948 | -95.31078 | 3999 ft | 99 kts | 276° |
| 2026-04-20 05:00 | 41.37927 | -95.31997 | 4000 ft | 100 kts | 275° |
| 2026-04-20 05:00 | 41.37911 | -95.32925 | 4004 ft | 99 kts | 274° |
| 2026-04-20 05:00 | 41.37890 | -95.33847 | 3992 ft | 101 kts | 276° |
| 2026-04-20 05:00 | 41.37872 | -95.34794 | 3998 ft | 104 kts | 275° |
| 2026-04-20 05:01 | 41.37849 | -95.35775 | 4009 ft | 108 kts | 276° |
| 2026-04-20 05:01 | 41.37831 | -95.36786 | 4009 ft | 110 kts | 276° |
| 2026-04-20 05:01 | 41.37806 | -95.37797 | 3998 ft | 108 kts | 275° |
| 2026-04-20 05:01 | 41.37787 | -95.38755 | 4003 ft | 99 kts | 276° |
| 2026-04-20 05:02 | 41.37766 | -95.39650 | 3998 ft | 95 kts | 276° |
| 2026-04-20 05:02 | 41.37745 | -95.40517 | 3998 ft | 94 kts | 276° |
| 2026-04-20 05:02 | 41.37731 | -95.41373 | 4002 ft | 93 kts | 276° |
| 2026-04-20 05:02 | 41.37710 | -95.42243 | 4016 ft | 98 kts | 277° |
| 2026-04-20 05:03 | 41.37698 | -95.43176 | 4007 ft | 103 kts | 276° |
| 2026-04-20 05:03 | 41.37674 | -95.44090 | 4003 ft | 95 kts | 276° |
| 2026-04-20 05:03 | 41.37654 | -95.44976 | 4000 ft | 97 kts | 276° |
| 2026-04-20 05:03 | 41.37636 | -95.45882 | 4021 ft | 99 kts | 275° |
| 2026-04-20 05:04 | 41.37618 | -95.46836 | 3999 ft | 105 kts | 276° |
| 2026-04-20 05:04 | 41.37590 | -95.47803 | 3999 ft | 103 kts | 276° |
| 2026-04-20 05:04 | 41.37577 | -95.48746 | 4016 ft | 104 kts | 276° |
| 2026-04-20 05:04 | 41.37552 | -95.49708 | 4003 ft | 101 kts | 276° |
| 2026-04-20 05:05 | 41.37541 | -95.50639 | 3996 ft | 102 kts | 274° |
| 2026-04-20 05:05 | 41.37509 | -95.51562 | 3998 ft | 102 kts | 277° |
| 2026-04-20 05:05 | 41.37495 | -95.52526 | 4010 ft | 106 kts | 277° |
| 2026-04-20 05:05 | 41.37471 | -95.53493 | 3996 ft | 102 kts | 272° |
| 2026-04-20 05:06 | 41.37442 | -95.54413 | 4027 ft | 99 kts | 277° |
| 2026-04-20 05:06 | 41.37422 | -95.55324 | 4012 ft | 97 kts | 276° |
| 2026-04-20 05:06 | 41.37408 | -95.56250 | 3999 ft | 105 kts | 278° |
| 2026-04-20 05:06 | 41.37389 | -95.57256 | 3999 ft | 111 kts | 275° |
| 2026-04-20 05:07 | 41.37362 | -95.58239 | 4001 ft | 102 kts | 276° |
| 2026-04-20 05:07 | 41.37340 | -95.59153 | 3995 ft | 97 kts | 276° |
| 2026-04-20 05:07 | 41.37320 | -95.60030 | 3997 ft | 94 kts | 276° |
| 2026-04-20 05:07 | 41.37300 | -95.60903 | 4014 ft | 96 kts | 275° |
| 2026-04-20 05:08 | 41.37283 | -95.61849 | 4022 ft | 108 kts | 277° |
| 2026-04-20 05:08 | 41.37261 | -95.62884 | 4009 ft | 115 kts | 276° |
| 2026-04-20 05:08 | 41.37239 | -95.63944 | 3992 ft | 113 kts | 276° |
| 2026-04-20 05:08 | 41.37207 | -95.64968 | 3999 ft | 110 kts | 275° |
| 2026-04-20 05:09 | 41.37185 | -95.65971 | 4014 ft | 111 kts | 275° |
| 2026-04-20 05:09 | 41.37163 | -95.67000 | 3996 ft | 108 kts | 276° |
| 2026-04-20 05:09 | 41.37138 | -95.67963 | 4004 ft | 102 kts | 276° |
| 2026-04-20 05:09 | 41.37116 | -95.68913 | 4016 ft | 104 kts | 276° |
| 2026-04-20 05:10 | 41.37091 | -95.69890 | 4007 ft | 108 kts | 275° |
| 2026-04-20 05:10 | 41.37070 | -95.70893 | 4014 ft | 109 kts | 274° |
| 2026-04-20 05:10 | 41.37045 | -95.71869 | 3994 ft | 102 kts | 275° |
| 2026-04-20 05:10 | 41.37024 | -95.72838 | 4016 ft | 110 kts | 275° |
| 2026-04-20 05:11 | 41.37000 | -95.73887 | 3995 ft | 114 kts | 275° |
| 2026-04-20 05:11 | 41.36969 | -95.74912 | 4009 ft | 111 kts | 276° |
| 2026-04-20 05:11 | 41.36950 | -95.75923 | 3988 ft | 105 kts | 275° |
| 2026-04-20 05:11 | 41.36927 | -95.76895 | 4010 ft | 108 kts | 275° |
| 2026-04-20 05:12 | 41.36896 | -95.77900 | 4027 ft | 107 kts | 272° |
| 2026-04-20 05:12 | 41.36872 | -95.78871 | 4018 ft | 103 kts | 277° |
| 2026-04-20 05:12 | 41.36852 | -95.79818 | 4013 ft | 99 kts | 276° |
| 2026-04-20 05:12 | 41.36826 | -95.80723 | 4015 ft | 101 kts | 275° |
| 2026-04-20 05:13 | 41.36805 | -95.81645 | 4034 ft | 103 kts | 276° |
| 2026-04-20 05:13 | 41.36790 | -95.82613 | 4018 ft | 104 kts | 274° |
| 2026-04-20 05:13 | 41.36760 | -95.83556 | 4018 ft | 100 kts | 276° |
| 2026-04-20 05:13 | 41.36736 | -95.84480 | 4008 ft | 99 kts | 276° |
| 2026-04-20 05:14 | 41.36715 | -95.85372 | 4013 ft | 94 kts | 276° |
| 2026-04-20 05:14 | 41.36691 | -95.86246 | 4027 ft | 98 kts | 273° |
| 2026-04-20 05:14 | 41.36674 | -95.87194 | 4034 ft | 106 kts | 275° |
| 2026-04-20 05:14 | 41.36644 | -95.88188 | 4031 ft | 108 kts | 274° |
| 2026-04-20 05:15 | 41.36621 | -95.89195 | 4034 ft | 110 kts | 274° |
| 2026-04-20 05:15 | 41.36594 | -95.90216 | 4017 ft | 108 kts | 274° |
| 2026-04-20 05:15 | 41.36568 | -95.91188 | 4018 ft | 102 kts | 274° |
| 2026-04-20 05:15 | 41.36547 | -95.92159 | 4031 ft | 109 kts | 275° |
| 2026-04-20 05:16 | 41.36516 | -95.93150 | 4019 ft | 105 kts | 274° |
| 2026-04-20 05:16 | 41.36492 | -95.94101 | 4011 ft | 101 kts | 274° |
| 2026-04-20 05:16 | 41.36465 | -95.95026 | 4013 ft | 100 kts | 273° |
| 2026-04-20 05:16 | 41.36447 | -95.95960 | 4012 ft | 101 kts | 275° |
| 2026-04-20 05:17 | 41.36423 | -95.96877 | 4015 ft | 97 kts | 274° |
| 2026-04-20 05:17 | 41.36400 | -95.97766 | 4020 ft | 96 kts | 276° |
| 2026-04-20 05:17 | 41.36375 | -95.98660 | 4044 ft | 99 kts | 275° |
| 2026-04-20 05:17 | 41.36353 | -95.99627 | 4029 ft | 111 kts | 274° |
| 2026-04-20 05:18 | 41.36327 | -96.00687 | 4014 ft | 113 kts | 274° |
| 2026-04-20 05:18 | 41.36295 | -96.01705 | 4028 ft | 108 kts | 275° |
| 2026-04-20 05:18 | 41.36269 | -96.02713 | 4050 ft | 109 kts | 274° |
| 2026-04-20 05:18 | 41.36240 | -96.03711 | 4011 ft | 107 kts | 274° |
| 2026-04-20 05:19 | 41.36218 | -96.04713 | 4020 ft | 107 kts | 276° |
| 2026-04-20 05:19 | 41.36189 | -96.05684 | 4011 ft | 103 kts | 275° |
| 2026-04-20 05:19 | 41.36163 | -96.06626 | 4014 ft | 101 kts | 275° |
| 2026-04-20 05:19 | 41.36138 | -96.07565 | 4022 ft | 104 kts | 276° |
| 2026-04-20 05:20 | 41.36115 | -96.08565 | 4014 ft | 111 kts | 275° |
| 2026-04-20 05:20 | 41.36084 | -96.09556 | 4018 ft | 108 kts | 275° |
| 2026-04-20 05:20 | 41.36060 | -96.10538 | 4030 ft | 110 kts | 275° |
| 2026-04-20 05:20 | 41.36031 | -96.11520 | 4030 ft | 104 kts | 276° |
| 2026-04-20 05:21 | 41.36003 | -96.12478 | 4027 ft | 102 kts | 275° |
| 2026-04-20 05:21 | 41.35979 | -96.13406 | 4017 ft | 98 kts | 275° |
| 2026-04-20 05:21 | 41.35954 | -96.14311 | 4014 ft | 97 kts | 276° |
| 2026-04-20 05:21 | 41.35926 | -96.15232 | 4029 ft | 104 kts | 275° |
| 2026-04-20 05:22 | 41.35906 | -96.16192 | 4027 ft | 107 kts | 274° |
| 2026-04-20 05:22 | 41.35874 | -96.17171 | 4022 ft | 106 kts | 276° |
| 2026-04-20 05:22 | 41.35856 | -96.18167 | 4014 ft | 110 kts | 272° |
| 2026-04-20 05:22 | 41.35814 | -96.19175 | 4029 ft | 111 kts | 276° |
| 2026-04-20 05:23 | 41.35797 | -96.20223 | 4015 ft | 111 kts | 274° |
| 2026-04-20 05:23 | 41.35764 | -96.21251 | 4026 ft | 109 kts | 274° |
| 2026-04-20 05:23 | 41.35732 | -96.22247 | 4013 ft | 103 kts | 275° |
| 2026-04-20 05:23 | 41.35697 | -96.23176 | 4027 ft | 101 kts | 272° |
| 2026-04-20 05:24 | 41.35699 | -96.24142 | 4031 ft | 110 kts | 271° |
| 2026-04-20 05:24 | 41.35652 | -96.25175 | 4013 ft | 109 kts | 272° |
| 2026-04-20 05:24 | 41.35621 | -96.26153 | 4008 ft | 103 kts | 272° |
| 2026-04-20 05:24 | 41.35595 | -96.27122 | 4014 ft | 107 kts | 273° |
| 2026-04-20 05:25 | 41.35565 | -96.28094 | 4031 ft | 105 kts | 271° |
| 2026-04-20 05:25 | 41.35544 | -96.29125 | 4012 ft | 114 kts | 272° |
| 2026-04-20 05:25 | 41.35508 | -96.30149 | 4020 ft | 109 kts | 272° |
| 2026-04-20 05:25 | 41.35480 | -96.31171 | 4009 ft | 111 kts | 272° |
| 2026-04-20 05:26 | 41.35449 | -96.32166 | 4008 ft | 106 kts | 271° |
| 2026-04-20 05:26 | 41.35423 | -96.33149 | 4010 ft | 106 kts | 272° |
| 2026-04-20 05:26 | 41.35394 | -96.34112 | 4018 ft | 102 kts | 272° |
| 2026-04-20 05:26 | 41.35366 | -96.35106 | 4006 ft | 109 kts | 273° |
| 2026-04-20 05:27 | 41.35335 | -96.36084 | 3996 ft | 103 kts | 273° |
| 2026-04-20 05:27 | 41.35309 | -96.37043 | 3983 ft | 108 kts | 272° |
| 2026-04-20 05:27 | 41.35282 | -96.38011 | 4016 ft | 104 kts | 274° |
| 2026-04-20 05:27 | 41.35250 | -96.38978 | 4023 ft | 104 kts | 273° |
| 2026-04-20 05:28 | 41.35213 | -96.39962 | 4015 ft | 110 kts | 271° |
| 2026-04-20 05:28 | 41.35188 | -96.41005 | 4016 ft | 115 kts | 273° |
| 2026-04-20 05:28 | 41.35158 | -96.42056 | 4011 ft | 111 kts | 272° |
| 2026-04-20 05:28 | 41.35128 | -96.43051 | 3995 ft | 105 kts | 274° |
| 2026-04-20 05:29 | 41.35100 | -96.44032 | 4001 ft | 108 kts | 273° |
| 2026-04-20 05:29 | 41.35069 | -96.45039 | 4009 ft | 109 kts | 274° |
| 2026-04-20 05:29 | 41.35039 | -96.46024 | 4007 ft | 105 kts | 270° |
| 2026-04-20 05:29 | 41.34996 | -96.47012 | 4005 ft | 109 kts | 274° |
| 2026-04-20 05:30 | 41.34945 | -96.48039 | 4000 ft | 113 kts | 271° |
| 2026-04-20 05:30 | 41.34935 | -96.49083 | 3996 ft | 110 kts | 273° |
| 2026-04-20 05:30 | 41.34909 | -96.50100 | 4000 ft | 111 kts | 272° |
| 2026-04-20 05:30 | 41.34881 | -96.51137 | 4005 ft | 114 kts | 272° |
| 2026-04-20 05:31 | 41.34852 | -96.52201 | 4015 ft | 117 kts | 271° |
| 2026-04-20 05:31 | 41.34818 | -96.53279 | 4013 ft | 116 kts | 272° |
| 2026-04-20 05:31 | 41.34785 | -96.54346 | 4021 ft | 114 kts | 271° |
| 2026-04-20 05:31 | 41.34747 | -96.55384 | 4003 ft | 108 kts | 272° |
| 2026-04-20 05:32 | 41.34720 | -96.56356 | 4005 ft | 102 kts | 271° |
| 2026-04-20 05:32 | 41.34691 | -96.57323 | 4013 ft | 106 kts | 272° |
| 2026-04-20 05:32 | 41.34660 | -96.58260 | 4006 ft | 98 kts | 271° |
| 2026-04-20 05:32 | 41.34633 | -96.59210 | 4020 ft | 106 kts | 271° |
| 2026-04-20 05:33 | 41.34601 | -96.60162 | 4015 ft | 100 kts | 271° |
| 2026-04-20 05:33 | 41.34573 | -96.61076 | 4006 ft | 99 kts | 273° |
| 2026-04-20 05:33 | 41.34542 | -96.61971 | 4000 ft | 95 kts | 272° |
| 2026-04-20 05:33 | 41.34516 | -96.62882 | 4026 ft | 104 kts | 272° |
| 2026-04-20 05:34 | 41.34487 | -96.63878 | 4010 ft | 110 kts | 271° |
| 2026-04-20 05:34 | 41.34451 | -96.64876 | 4029 ft | 108 kts | 272° |
| 2026-04-20 05:34 | 41.34386 | -96.66952 | 4000 ft | 108 kts | 271° |
| 2026-04-20 05:35 | 41.34350 | -96.67972 | 4019 ft | 113 kts | 271° |
| 2026-04-20 05:35 | 41.34320 | -96.68988 | 4008 ft | 107 kts | 271° |
| 2026-04-20 05:35 | 41.34290 | -96.69973 | 4020 ft | 109 kts | 270° |
| 2026-04-20 05:35 | 41.34257 | -96.70964 | 4022 ft | 107 kts | 272° |
| 2026-04-20 05:36 | 41.34227 | -96.71998 | 4013 ft | 114 kts | 272° |
| 2026-04-20 05:36 | 41.34192 | -96.73051 | 4014 ft | 115 kts | 272° |
| 2026-04-20 05:36 | 41.34154 | -96.74118 | 4015 ft | 115 kts | 279° |
| 2026-04-20 05:36 | 41.34137 | -96.75159 | 4017 ft | 110 kts | 269° |
| 2026-04-20 05:37 | 41.34086 | -96.76177 | 4008 ft | 109 kts | 274° |
| 2026-04-20 05:37 | 41.34057 | -96.77166 | 4015 ft | 106 kts | 274° |
| 2026-04-20 05:37 | 41.34019 | -96.78151 | 4007 ft | 104 kts | 273° |
| 2026-04-20 05:37 | 41.33992 | -96.79100 | 4001 ft | 102 kts | 274° |
| 2026-04-20 05:38 | 41.33958 | -96.80049 | 4012 ft | 105 kts | 272° |
| 2026-04-20 05:38 | 41.33926 | -96.81026 | 4021 ft | 107 kts | 272° |
| 2026-04-20 05:38 | 41.33893 | -96.82036 | 4024 ft | 110 kts | 272° |
| 2026-04-20 05:38 | 41.33859 | -96.83061 | 4009 ft | 110 kts | 272° |
| 2026-04-20 05:39 | 41.33827 | -96.84084 | 4002 ft | 111 kts | 272° |
| 2026-04-20 05:39 | 41.33790 | -96.85068 | 4005 ft | 103 kts | 272° |
| 2026-04-20 05:39 | 41.33756 | -96.86001 | 4008 ft | 99 kts | 271° |
| 2026-04-20 05:39 | 41.33729 | -96.86951 | 4017 ft | 104 kts | 271° |
| 2026-04-20 05:40 | 41.33696 | -96.87921 | 4008 ft | 105 kts | 271° |
| 2026-04-20 05:40 | 41.33659 | -96.88880 | 4008 ft | 104 kts | 271° |
| 2026-04-20 05:40 | 41.33627 | -96.89884 | 4028 ft | 113 kts | 270° |
| 2026-04-20 05:40 | 41.33606 | -96.90582 | 4012 ft | 113 kts | 269° |
| 2026-04-20 05:41 | 41.33568 | -96.91595 | 4011 ft | 107 kts | 272° |
| 2026-04-20 05:41 | 41.33526 | -96.92586 | 4053 ft | 109 kts | 271° |
| 2026-04-20 05:41 | 41.33504 | -96.93617 | 4017 ft | 109 kts | 270° |
| 2026-04-20 05:41 | 41.33463 | -96.94620 | 4028 ft | 111 kts | 272° |
| 2026-04-20 05:42 | 41.33433 | -96.95614 | 4054 ft | 106 kts | 271° |
| 2026-04-20 05:42 | 41.33390 | -96.96626 | 4027 ft | 112 kts | 271° |
| 2026-04-20 05:42 | 41.33360 | -96.97671 | 4018 ft | 113 kts | 272° |
| 2026-04-20 05:42 | 41.33322 | -96.98711 | 4023 ft | 114 kts | 271° |
| 2026-04-20 05:43 | 41.33285 | -96.99763 | 4013 ft | 110 kts | 271° |
| 2026-04-20 05:43 | 41.33244 | -97.00748 | 4038 ft | 105 kts | 270° |
| 2026-04-20 05:43 | 41.33216 | -97.01775 | 4035 ft | 116 kts | 271° |
| 2026-04-20 05:43 | 41.33171 | -97.02827 | 4018 ft | 112 kts | 272° |
| 2026-04-20 05:44 | 41.33138 | -97.03850 | 4015 ft | 109 kts | 273° |
| 2026-04-20 05:44 | 41.33106 | -97.04843 | 4019 ft | 107 kts | 273° |
| 2026-04-20 05:44 | 41.33073 | -97.05829 | 4012 ft | 105 kts | 272° |
| 2026-04-20 05:44 | 41.33033 | -97.06775 | 4026 ft | 104 kts | 271° |
| 2026-04-20 05:45 | 41.33003 | -97.07769 | 4021 ft | 109 kts | 273° |
| 2026-04-20 05:45 | 41.32969 | -97.08793 | 4028 ft | 116 kts | 272° |
| 2026-04-20 05:45 | 41.32934 | -97.09834 | 4009 ft | 109 kts | 271° |
| 2026-04-20 05:45 | 41.32894 | -97.10813 | 4022 ft | 106 kts | 271° |
| 2026-04-20 05:46 | 41.32865 | -97.11844 | 4033 ft | 117 kts | 274° |
| 2026-04-20 05:46 | 41.32823 | -97.12962 | 4026 ft | 122 kts | 270° |
| 2026-04-20 05:46 | 41.32779 | -97.14052 | 4011 ft | 113 kts | 270° |
| 2026-04-20 05:46 | 41.32739 | -97.15115 | 4038 ft | 120 kts | 271° |
| 2026-04-20 05:47 | 41.32703 | -97.16261 | 4032 ft | 127 kts | 270° |
| 2026-04-20 05:47 | 41.32656 | -97.17431 | 4027 ft | 125 kts | 271° |
| 2026-04-20 05:47 | 41.32613 | -97.18585 | 3913 ft | 128 kts | 273° |
| 2026-04-20 05:47 | 41.32567 | -97.19667 | 4003 ft | 107 kts | 273° |
| 2026-04-20 05:48 | 41.32536 | -97.20641 | 4034 ft | 109 kts | 274° |
| 2026-04-20 05:48 | 41.32494 | -97.21655 | 4027 ft | 103 kts | 273° |
| 2026-04-20 05:48 | 41.32456 | -97.22653 | 4030 ft | 116 kts | 272° |
| 2026-04-20 05:48 | 41.32421 | -97.23694 | 4014 ft | 109 kts | 273° |
| 2026-04-20 05:49 | 41.32386 | -97.24678 | 4041 ft | 107 kts | 271° |
| 2026-04-20 05:49 | 41.32351 | -97.25723 | 4033 ft | 117 kts | 272° |
| 2026-04-20 05:49 | 41.32312 | -97.26777 | 4018 ft | 113 kts | 272° |
| 2026-04-20 05:49 | 41.32271 | -97.27801 | 4013 ft | 109 kts | 273° |
| 2026-04-20 05:50 | 41.32234 | -97.28790 | 4016 ft | 106 kts | 273° |
| 2026-04-20 05:50 | 41.32197 | -97.29768 | 4016 ft | 104 kts | 273° |
| 2026-04-20 05:50 | 41.32162 | -97.30731 | 4012 ft | 104 kts | 274° |
| 2026-04-20 05:50 | 41.32126 | -97.31685 | 4079 ft | 107 kts | 274° |
| 2026-04-20 05:51 | 41.32090 | -97.32740 | 4022 ft | 112 kts | 273° |
| 2026-04-20 05:51 | 41.32047 | -97.33756 | 4014 ft | 107 kts | 273° |
| 2026-04-20 05:51 | 41.32012 | -97.34759 | 4009 ft | 113 kts | 272° |
| 2026-04-20 05:51 | 41.31971 | -97.35808 | 4029 ft | 117 kts | 273° |
| 2026-04-20 05:52 | 41.31935 | -97.36882 | 4014 ft | 115 kts | 273° |
| 2026-04-20 05:52 | 41.31900 | -97.37917 | 4023 ft | 113 kts | 274° |
| 2026-04-20 05:52 | 41.31845 | -97.39025 | 4013 ft | 120 kts | 272° |
| 2026-04-20 05:52 | 41.31801 | -97.40096 | 4055 ft | 114 kts | 271° |
| 2026-04-20 05:53 | 41.31767 | -97.41186 | 3997 ft | 117 kts | 272° |
| 2026-04-20 05:53 | 41.31718 | -97.42238 | 4028 ft | 117 kts | 271° |
| 2026-04-20 05:53 | 41.31683 | -97.43302 | 4013 ft | 111 kts | 270° |
| 2026-04-20 05:53 | 41.31641 | -97.44306 | 4017 ft | 106 kts | 271° |
| 2026-04-20 05:54 | 41.31604 | -97.45280 | 4017 ft | 103 kts | 271° |
| 2026-04-20 05:54 | 41.31566 | -97.46227 | 4010 ft | 102 kts | 271° |
| 2026-04-20 05:54 | 41.31515 | -97.47165 | 4027 ft | 104 kts | 269° |
| 2026-04-20 05:54 | 41.31495 | -97.48129 | 4018 ft | 108 kts | 270° |
| 2026-04-20 05:55 | 41.31462 | -97.49117 | 4025 ft | 111 kts | 272° |
| 2026-04-20 05:55 | 41.31416 | -97.50123 | 4018 ft | 106 kts | 270° |
| 2026-04-20 05:55 | 41.31377 | -97.51093 | 4015 ft | 104 kts | 271° |
| 2026-04-20 05:55 | 41.31339 | -97.52048 | 4017 ft | 104 kts | 271° |
| 2026-04-20 05:56 | 41.31302 | -97.53044 | 4013 ft | 111 kts | 271° |
| 2026-04-20 05:56 | 41.31260 | -97.54043 | 4013 ft | 107 kts | 271° |
| 2026-04-20 05:56 | 41.31221 | -97.55051 | 4036 ft | 114 kts | 271° |
| 2026-04-20 05:56 | 41.31180 | -97.56087 | 4019 ft | 109 kts | 271° |
| 2026-04-20 05:57 | 41.31135 | -97.57119 | 4011 ft | 112 kts | 272° |
| 2026-04-20 05:57 | 41.31100 | -97.58165 | 4020 ft | 111 kts | 270° |
| 2026-04-20 05:57 | 41.31055 | -97.59162 | 4013 ft | 104 kts | 271° |
| 2026-04-20 05:57 | 41.31014 | -97.60116 | 4054 ft | 105 kts | 271° |
| 2026-04-20 05:58 | 41.30982 | -97.61174 | 4005 ft | 119 kts | 270° |
| 2026-04-20 05:58 | 41.30931 | -97.62229 | 4010 ft | 110 kts | 271° |
| 2026-04-20 05:58 | 41.30890 | -97.63236 | 4012 ft | 106 kts | 271° |
| 2026-04-20 05:58 | 41.30852 | -97.64207 | 4012 ft | 104 kts | 270° |
| 2026-04-20 05:59 | 41.30813 | -97.65163 | 4017 ft | 104 kts | 270° |
| 2026-04-20 05:59 | 41.30766 | -97.66146 | 4022 ft | 110 kts | 274° |
| 2026-04-20 05:59 | 41.30732 | -97.67165 | 4019 ft | 109 kts | 270° |
| 2026-04-20 05:59 | 41.30695 | -97.68184 | 4007 ft | 115 kts | 274° |
| 2026-04-20 06:00 | 41.30633 | -97.69235 | 4038 ft | 118 kts | 271° |
| 2026-04-20 06:00 | 41.30604 | -97.70339 | 4017 ft | 115 kts | 270° |
| 2026-04-20 06:00 | 41.30558 | -97.71370 | 4014 ft | 109 kts | 271° |
| 2026-04-20 06:00 | 41.30517 | -97.72349 | 4009 ft | 104 kts | 272° |
| 2026-04-20 06:01 | 41.30477 | -97.73292 | 4014 ft | 101 kts | 272° |
| 2026-04-20 06:01 | 41.30439 | -97.74220 | 4014 ft | 99 kts | 272° |
| 2026-04-20 06:01 | 41.30406 | -97.75154 | 4008 ft | 104 kts | 271° |
| 2026-04-20 06:01 | 41.30358 | -97.76100 | 4051 ft | 106 kts | 271° |
| 2026-04-20 06:02 | 41.30322 | -97.77116 | 4024 ft | 109 kts | 269° |
| 2026-04-20 06:02 | 41.30279 | -97.78111 | 4011 ft | 105 kts | 272° |
| 2026-04-20 06:02 | 41.30241 | -97.79117 | 4032 ft | 116 kts | 270° |
| 2026-04-20 06:02 | 41.30192 | -97.80172 | 4013 ft | 111 kts | 271° |
| 2026-04-20 06:03 | 41.30148 | -97.81169 | 4009 ft | 106 kts | 272° |
| 2026-04-20 06:03 | 41.30109 | -97.82124 | 4011 ft | 103 kts | 271° |
| 2026-04-20 06:03 | 41.30068 | -97.83059 | 4029 ft | 102 kts | 270° |
| 2026-04-20 06:03 | 41.30029 | -97.84075 | 4027 ft | 119 kts | 271° |
| 2026-04-20 06:04 | 41.29979 | -97.85170 | 4040 ft | 118 kts | 274° |
| 2026-04-20 06:04 | 41.29939 | -97.86266 | 4038 ft | 120 kts | 271° |
| 2026-04-20 06:04 | 41.29897 | -97.87417 | 4030 ft | 127 kts | 271° |
| 2026-04-20 06:04 | 41.29843 | -97.88610 | 4025 ft | 131 kts | 270° |
| 2026-04-20 06:05 | 41.29789 | -97.89781 | 4001 ft | 121 kts | 271° |
| 2026-04-20 06:05 | 41.29740 | -97.90856 | 4003 ft | 114 kts | 272° |
| 2026-04-20 06:05 | 41.29695 | -97.91886 | 4030 ft | 112 kts | 272° |
| 2026-04-20 06:05 | 41.29650 | -97.92957 | 4018 ft | 118 kts | 271° |
| 2026-04-20 06:06 | 41.29606 | -97.94071 | 4017 ft | 121 kts | 272° |
| 2026-04-20 06:06 | 41.29555 | -97.95165 | 4002 ft | 114 kts | 272° |
| 2026-04-20 06:06 | 41.29510 | -97.96197 | 4009 ft | 109 kts | 272° |
| 2026-04-20 06:06 | 41.29465 | -97.97195 | 4003 ft | 108 kts | 272° |
| 2026-04-20 06:07 | 41.29420 | -97.98193 | 4018 ft | 110 kts | 271° |
| 2026-04-20 06:07 | 41.29381 | -97.99210 | 4006 ft | 109 kts | 272° |
| 2026-04-20 06:07 | 41.29335 | -98.00216 | 4001 ft | 108 kts | 271° |
| 2026-04-20 06:07 | 41.29285 | -98.01217 | 4008 ft | 108 kts | 273° |
| 2026-04-20 06:08 | 41.29252 | -98.02213 | 4004 ft | 107 kts | 270° |
| 2026-04-20 06:08 | 41.29205 | -98.03240 | 4009 ft | 115 kts | 272° |
| 2026-04-20 06:08 | 41.29159 | -98.04346 | 4025 ft | 125 kts | 272° |
| 2026-04-20 06:08 | 41.29111 | -98.05505 | 4016 ft | 125 kts | 269° |
| 2026-04-20 06:09 | 41.29057 | -98.06666 | 3999 ft | 121 kts | 269° |
| 2026-04-20 06:09 | 41.29005 | -98.07748 | 3993 ft | 114 kts | 270° |
| 2026-04-20 06:09 | 41.28957 | -98.08803 | 3988 ft | 122 kts | 271° |
| 2026-04-20 06:09 | 41.28906 | -98.09922 | 4007 ft | 123 kts | 270° |
| 2026-04-20 06:10 | 41.28856 | -98.11073 | 4010 ft | 126 kts | 268° |
| 2026-04-20 06:10 | 41.28805 | -98.12223 | 4003 ft | 121 kts | 270° |
| 2026-04-20 06:10 | 41.28756 | -98.13318 | 3996 ft | 116 kts | 271° |
| 2026-04-20 06:10 | 41.28708 | -98.14372 | 3992 ft | 112 kts | 271° |
| 2026-04-20 06:11 | 41.28662 | -98.15395 | 3998 ft | 110 kts | 271° |
| 2026-04-20 06:11 | 41.28617 | -98.16399 | 3998 ft | 108 kts | 272° |
| 2026-04-20 06:11 | 41.28569 | -98.17401 | 3998 ft | 107 kts | 270° |
| 2026-04-20 06:11 | 41.28526 | -98.18382 | 3991 ft | 106 kts | 271° |
| 2026-04-20 06:12 | 41.28473 | -98.19360 | 4040 ft | 109 kts | 271° |
| 2026-04-20 06:12 | 41.28435 | -98.20406 | 3990 ft | 109 kts | 271° |
| 2026-04-20 06:12 | 41.28391 | -98.21431 | 3998 ft | 116 kts | 271° |
| 2026-04-20 06:12 | 41.28334 | -98.22492 | 4004 ft | 112 kts | 276° |
| 2026-04-20 06:13 | 41.28316 | -98.23526 | 3998 ft | 111 kts | 270° |
| 2026-04-20 06:13 | 41.28254 | -98.24548 | 4000 ft | 111 kts | 270° |
| 2026-04-20 06:13 | 41.28203 | -98.25564 | 3989 ft | 109 kts | 270° |
| 2026-04-20 06:13 | 41.28156 | -98.26553 | 3991 ft | 106 kts | 272° |
| 2026-04-20 06:14 | 41.28109 | -98.27522 | 3995 ft | 103 kts | 272° |
| 2026-04-20 06:14 | 41.28065 | -98.28469 | 3989 ft | 101 kts | 272° |
| 2026-04-20 06:14 | 41.28022 | -98.29405 | 3995 ft | 102 kts | 272° |
| 2026-04-20 06:14 | 41.27979 | -98.30349 | 4004 ft | 103 kts | 272° |
| 2026-04-20 06:15 | 41.27935 | -98.31307 | 4002 ft | 103 kts | 272° |
| 2026-04-20 06:15 | 41.27891 | -98.32259 | 3999 ft | 102 kts | 272° |
| 2026-04-20 06:15 | 41.27846 | -98.33204 | 4000 ft | 102 kts | 272° |
| 2026-04-20 06:15 | 41.27802 | -98.34151 | 4005 ft | 103 kts | 271° |
| 2026-04-20 06:16 | 41.27757 | -98.35124 | 4001 ft | 108 kts | 271° |
| 2026-04-20 06:16 | 41.27710 | -98.36118 | 3998 ft | 108 kts | 271° |
| 2026-04-20 06:16 | 41.27665 | -98.37116 | 4002 ft | 108 kts | 270° |
| 2026-04-20 06:16 | 41.27616 | -98.38114 | 4002 ft | 108 kts | 271° |
| 2026-04-20 06:17 | 41.27569 | -98.39111 | 4000 ft | 109 kts | 271° |
| 2026-04-20 06:17 | 41.27523 | -98.40106 | 4002 ft | 109 kts | 272° |
| 2026-04-20 06:17 | 41.27475 | -98.41118 | 4002 ft | 110 kts | 272° |
| 2026-04-20 06:17 | 41.27428 | -98.42116 | 4050 ft | 106 kts | 272° |
| 2026-04-20 06:18 | 41.27380 | -98.43173 | 4071 ft | 123 kts | 272° |
| 2026-04-20 06:18 | 41.27326 | -98.44306 | 4085 ft | 119 kts | 271° |
| 2026-04-20 06:18 | 41.27270 | -98.45456 | 4052 ft | 127 kts | 269° |
| 2026-04-20 06:18 | 41.27214 | -98.46589 | 4045 ft | 119 kts | 269° |
| 2026-04-20 06:19 | 41.27162 | -98.47694 | 4072 ft | 124 kts | 269° |
| 2026-04-20 06:19 | 41.27111 | -98.48838 | 4169 ft | 124 kts | 271° |
| 2026-04-20 06:19 | 41.27053 | -98.49956 | 4287 ft | 119 kts | 269° |
| 2026-04-20 06:19 | 41.27001 | -98.51027 | 4407 ft | 114 kts | 270° |
| 2026-04-20 06:20 | 41.26951 | -98.52060 | 4537 ft | 111 kts | 271° |
| 2026-04-20 06:20 | 41.26902 | -98.53071 | 4666 ft | 109 kts | 270° |
| 2026-04-20 06:20 | 41.26855 | -98.54061 | 4794 ft | 106 kts | 272° |
| 2026-04-20 06:20 | 41.26806 | -98.55089 | 4945 ft | 116 kts | 268° |
| 2026-04-20 06:21 | 41.26766 | -98.56132 | 5069 ft | 112 kts | 271° |
| 2026-04-20 06:21 | 41.26701 | -98.57143 | 5185 ft | 108 kts | 270° |
| 2026-04-20 06:21 | 41.26655 | -98.58120 | 5305 ft | 104 kts | 270° |
| 2026-04-20 06:21 | 41.26610 | -98.59070 | 5424 ft | 102 kts | 271° |
| 2026-04-20 06:22 | 41.26564 | -98.60002 | 5547 ft | 100 kts | 271° |
| 2026-04-20 06:22 | 41.26519 | -98.60919 | 5670 ft | 99 kts | 270° |
| 2026-04-20 06:22 | 41.26476 | -98.61825 | 5797 ft | 98 kts | 270° |
| 2026-04-20 06:22 | 41.26431 | -98.62730 | 5924 ft | 99 kts | 271° |
| 2026-04-20 06:23 | 41.26386 | -98.63631 | 6048 ft | 97 kts | 270° |
| 2026-04-20 06:23 | 41.26343 | -98.64565 | 6050 ft | 105 kts | 270° |
| 2026-04-20 06:23 | 41.26295 | -98.65561 | 6057 ft | 111 kts | 270° |
| 2026-04-20 06:23 | 41.26243 | -98.66556 | 6058 ft | 105 kts | 270° |
| 2026-04-20 06:24 | 41.26198 | -98.67506 | 6036 ft | 99 kts | 271° |
| 2026-04-20 06:24 | 41.26151 | -98.68410 | 6055 ft | 101 kts | 271° |
| 2026-04-20 06:24 | 41.26109 | -98.69333 | 6041 ft | 97 kts | 271° |
| 2026-04-20 06:24 | 41.26064 | -98.70203 | 6038 ft | 92 kts | 271° |
| 2026-04-20 06:25 | 41.26022 | -98.71070 | 6026 ft | 98 kts | 273° |
| 2026-04-20 06:25 | 41.25975 | -98.71939 | 6035 ft | 92 kts | 272° |
| 2026-04-20 06:25 | 41.25934 | -98.72770 | 6040 ft | 89 kts | 271° |
| 2026-04-20 06:25 | 41.25893 | -98.73638 | 6064 ft | 101 kts | 271° |
| 2026-04-20 06:26 | 41.25846 | -98.74577 | 6047 ft | 100 kts | 270° |
| 2026-04-20 06:26 | 41.25798 | -98.75502 | 6051 ft | 99 kts | 271° |
| 2026-04-20 06:26 | 41.25752 | -98.76461 | 6062 ft | 108 kts | 270° |
| 2026-04-20 06:26 | 41.25701 | -98.77452 | 6044 ft | 105 kts | 270° |
| 2026-04-20 06:27 | 41.25655 | -98.78389 | 6036 ft | 99 kts | 271° |
| 2026-04-20 06:27 | 41.25606 | -98.79321 | 6052 ft | 105 kts | 271° |
| 2026-04-20 06:27 | 41.25559 | -98.80275 | 6041 ft | 101 kts | 270° |
| 2026-04-20 06:27 | 41.25512 | -98.81180 | 6038 ft | 98 kts | 270° |
| 2026-04-20 06:28 | 41.25467 | -98.82090 | 6050 ft | 104 kts | 270° |
| 2026-04-20 06:28 | 41.25420 | -98.83066 | 6051 ft | 105 kts | 270° |
| 2026-04-20 06:28 | 41.25366 | -98.84055 | 6039 ft | 109 kts | 269° |
| 2026-04-20 06:28 | 41.25315 | -98.85033 | 6049 ft | 105 kts | 270° |
| 2026-04-20 06:29 | 41.25267 | -98.85994 | 6040 ft | 103 kts | 269° |
| 2026-04-20 06:29 | 41.25216 | -98.86946 | 6037 ft | 103 kts | 269° |
| 2026-04-20 06:29 | 41.25171 | -98.87906 | 6039 ft | 104 kts | 270° |
| 2026-04-20 06:29 | 41.25119 | -98.88860 | 6039 ft | 103 kts | 270° |
| 2026-04-20 06:30 | 41.25071 | -98.89804 | 6033 ft | 101 kts | 270° |
| 2026-04-20 06:30 | 41.25016 | -98.90740 | 6048 ft | 104 kts | 269° |
| 2026-04-20 06:30 | 41.24981 | -98.91686 | 6037 ft | 102 kts | 271° |
| 2026-04-20 06:30 | 41.24941 | -98.92321 | 6050 ft | 104 kts | 269° |
| 2026-04-20 06:31 | 41.24892 | -98.93316 | 6056 ft | 111 kts | 269° |
| 2026-04-20 06:31 | 41.24838 | -98.94327 | 6031 ft | 106 kts | 270° |
| 2026-04-20 06:31 | 41.24788 | -98.95258 | 6034 ft | 100 kts | 270° |
| 2026-04-20 06:31 | 41.24740 | -98.96186 | 6036 ft | 98 kts | 270° |
| 2026-04-20 06:32 | 41.24692 | -98.97081 | 6036 ft | 95 kts | 270° |
| 2026-04-20 06:32 | 41.24647 | -98.97958 | 6033 ft | 95 kts | 270° |
| 2026-04-20 06:32 | 41.24601 | -98.98830 | 6029 ft | 94 kts | 271° |
| 2026-04-20 06:32 | 41.24557 | -98.99677 | 6031 ft | 90 kts | 270° |
| 2026-04-20 06:33 | 41.24516 | -99.00507 | 6033 ft | 90 kts | 271° |
| 2026-04-20 06:33 | 41.24471 | -99.01346 | 6040 ft | 91 kts | 271° |
| 2026-04-20 06:33 | 41.24428 | -99.02200 | 6053 ft | 96 kts | 271° |
| 2026-04-20 06:33 | 41.24380 | -99.03084 | 6049 ft | 99 kts | 271° |
| 2026-04-20 06:34 | 41.24331 | -99.04006 | 6031 ft | 98 kts | 271° |
| 2026-04-20 06:34 | 41.24280 | -99.04906 | 6047 ft | 100 kts | 271° |
| 2026-04-20 06:34 | 41.24182 | -99.06840 | 6043 ft | 106 kts | 271° |
| 2026-04-20 06:35 | 41.24131 | -99.07816 | 6035 ft | 103 kts | 270° |
| 2026-04-20 06:35 | 41.24079 | -99.08745 | 6031 ft | 98 kts | 271° |
| 2026-04-20 06:35 | 41.24031 | -99.09646 | 6038 ft | 99 kts | 271° |
| 2026-04-20 06:35 | 41.23983 | -99.10575 | 6045 ft | 102 kts | 270° |
| 2026-04-20 06:36 | 41.23933 | -99.11519 | 6033 ft | 100 kts | 270° |
| 2026-04-20 06:36 | 41.23882 | -99.12423 | 6033 ft | 98 kts | 270° |
| 2026-04-20 06:36 | 41.23833 | -99.13352 | 6035 ft | 102 kts | 269° |
| 2026-04-20 06:36 | 41.23784 | -99.14308 | 6032 ft | 105 kts | 270° |
| 2026-04-20 06:37 | 41.23734 | -99.15272 | 6028 ft | 103 kts | 270° |
| 2026-04-20 06:37 | 41.23687 | -99.16206 | 6028 ft | 99 kts | 270° |
| 2026-04-20 06:37 | 41.23639 | -99.17134 | 6043 ft | 104 kts | 269° |
| 2026-04-20 06:37 | 41.23589 | -99.18112 | 6040 ft | 106 kts | 271° |
| 2026-04-20 06:38 | 41.23552 | -99.19083 | 6039 ft | 105 kts | 271° |
| 2026-04-20 06:38 | 41.23498 | -99.20040 | 6034 ft | 103 kts | 271° |
| 2026-04-20 06:38 | 41.23458 | -99.20977 | 6030 ft | 104 kts | 269° |
| 2026-04-20 06:38 | 41.23409 | -99.21917 | 6031 ft | 100 kts | 269° |
| 2026-04-20 06:39 | 41.23362 | -99.22855 | 6037 ft | 104 kts | 269° |
| 2026-04-20 06:39 | 41.23311 | -99.23836 | 6042 ft | 110 kts | 268° |
| 2026-04-20 06:39 | 41.23262 | -99.24857 | 6018 ft | 110 kts | 270° |
| 2026-04-20 06:39 | 41.23212 | -99.25829 | 6026 ft | 101 kts | 270° |
| 2026-04-20 06:40 | 41.23166 | -99.26748 | 6027 ft | 99 kts | 269° |
| 2026-04-20 06:40 | 41.23121 | -99.27649 | 6026 ft | 97 kts | 268° |
| 2026-04-20 06:40 | 41.23070 | -99.28550 | 6024 ft | 99 kts | 269° |
| 2026-04-20 06:40 | 41.23032 | -99.29453 | 6037 ft | 98 kts | 270° |
| 2026-04-20 06:41 | 41.22986 | -99.30344 | 6034 ft | 96 kts | 270° |
| 2026-04-20 06:41 | 41.22943 | -99.31215 | 6033 ft | 94 kts | 270° |
| 2026-04-20 06:41 | 41.22904 | -99.32088 | 6053 ft | 96 kts | 270° |
| 2026-04-20 06:41 | 41.22851 | -99.33017 | 6049 ft | 104 kts | 270° |
| 2026-04-20 06:42 | 41.22803 | -99.34001 | 6035 ft | 109 kts | 270° |
| 2026-04-20 06:42 | 41.22754 | -99.35012 | 6026 ft | 109 kts | 270° |
| 2026-04-20 06:42 | 41.22702 | -99.35973 | 6044 ft | 101 kts | 270° |
| 2026-04-20 06:42 | 41.22656 | -99.36890 | 6029 ft | 96 kts | 271° |
| 2026-04-20 06:43 | 41.22613 | -99.37764 | 6025 ft | 95 kts | 271° |
| 2026-04-20 06:43 | 41.22556 | -99.38664 | 6044 ft | 100 kts | 269° |
| 2026-04-20 06:43 | 41.22521 | -99.39620 | 6033 ft | 107 kts | 269° |
| 2026-04-20 06:43 | 41.22470 | -99.40624 | 6026 ft | 110 kts | 270° |
| 2026-04-20 06:44 | 41.22418 | -99.41612 | 6015 ft | 103 kts | 269° |
| 2026-04-20 06:44 | 41.22363 | -99.42537 | 6008 ft | 98 kts | 271° |
| 2026-04-20 06:44 | 41.22323 | -99.43424 | 6013 ft | 95 kts | 268° |
| 2026-04-20 06:44 | 41.22274 | -99.44352 | 6022 ft | 107 kts | 269° |
| 2026-04-20 06:45 | 41.22225 | -99.45345 | 6018 ft | 108 kts | 268° |
| 2026-04-20 06:45 | 41.22175 | -99.46307 | 6013 ft | 101 kts | 265° |
| 2026-04-20 06:45 | 41.22124 | -99.47239 | 6012 ft | 102 kts | 267° |
| 2026-04-20 06:45 | 41.22079 | -99.48199 | 6023 ft | 106 kts | 267° |
| 2026-04-20 06:46 | 41.22028 | -99.49187 | 6019 ft | 106 kts | 267° |
| 2026-04-20 06:46 | 41.21974 | -99.50167 | 6018 ft | 106 kts | 267° |
| 2026-04-20 06:46 | 41.21926 | -99.51131 | 6015 ft | 104 kts | 267° |
| 2026-04-20 06:46 | 41.21876 | -99.52078 | 6010 ft | 102 kts | 267° |
| 2026-04-20 06:47 | 41.21828 | -99.53019 | 6016 ft | 104 kts | 267° |
| 2026-04-20 06:47 | 41.21777 | -99.53980 | 6011 ft | 104 kts | 267° |
| 2026-04-20 06:47 | 41.21727 | -99.54934 | 6015 ft | 104 kts | 268° |
| 2026-04-20 06:47 | 41.21677 | -99.55890 | 6015 ft | 104 kts | 266° |
| 2026-04-20 06:48 | 41.21626 | -99.56842 | 6008 ft | 103 kts | 267° |
| 2026-04-20 06:48 | 41.21576 | -99.57777 | 6011 ft | 100 kts | 267° |
| 2026-04-20 06:48 | 41.21529 | -99.58707 | 6008 ft | 101 kts | 266° |
| 2026-04-20 06:48 | 41.21479 | -99.59657 | 6018 ft | 105 kts | 267° |
| 2026-04-20 06:49 | 41.21429 | -99.60609 | 6011 ft | 102 kts | 266° |
| 2026-04-20 06:49 | 41.21379 | -99.61554 | 6035 ft | 101 kts | 267° |
| 2026-04-20 06:49 | 41.21329 | -99.62490 | 6045 ft | 103 kts | 266° |
| 2026-04-20 06:49 | 41.21279 | -99.63443 | 6049 ft | 104 kts | 267° |
| 2026-04-20 06:50 | 41.21230 | -99.64413 | 6050 ft | 106 kts | 267° |
| 2026-04-20 06:50 | 41.21175 | -99.65381 | 6044 ft | 104 kts | 266° |
| 2026-04-20 06:50 | 41.21127 | -99.66348 | 6051 ft | 105 kts | 267° |
| 2026-04-20 06:50 | 41.21071 | -99.67315 | 6051 ft | 106 kts | 267° |
| 2026-04-20 06:51 | 41.21021 | -99.68300 | 6048 ft | 106 kts | 266° |
| 2026-04-20 06:51 | 41.20967 | -99.69274 | 6038 ft | 103 kts | 267° |
| 2026-04-20 06:51 | 41.20916 | -99.70223 | 6043 ft | 104 kts | 266° |
| 2026-04-20 06:51 | 41.20934 | -99.71191 | 6042 ft | 105 kts | 275° |
| 2026-04-20 06:52 | 41.20978 | -99.72172 | 6043 ft | 107 kts | 274° |
| 2026-04-20 06:52 | 41.21021 | -99.73153 | 6045 ft | 108 kts | 274° |
| 2026-04-20 06:52 | 41.21064 | -99.74152 | 6042 ft | 108 kts | 273° |
| 2026-04-20 06:52 | 41.21058 | -99.75132 | 6030 ft | 105 kts | 269° |
| 2026-04-20 06:53 | 41.21042 | -99.76094 | 6033 ft | 105 kts | 269° |
| 2026-04-20 06:53 | 41.21026 | -99.77074 | 6037 ft | 106 kts | 269° |
| 2026-04-20 06:53 | 41.21010 | -99.78047 | 6037 ft | 105 kts | 269° |
| 2026-04-20 06:53 | 41.20993 | -99.79023 | 6039 ft | 106 kts | 270° |
| 2026-04-20 06:54 | 41.20978 | -99.80006 | 6034 ft | 106 kts | 269° |
| 2026-04-20 06:54 | 41.20962 | -99.80970 | 6037 ft | 104 kts | 270° |
| 2026-04-20 06:54 | 41.20945 | -99.81937 | 6040 ft | 104 kts | 270° |
| 2026-04-20 06:54 | 41.20932 | -99.82911 | 6044 ft | 107 kts | 270° |
| 2026-04-20 06:55 | 41.20921 | -99.83911 | 6042 ft | 111 kts | 267° |
| 2026-04-20 06:55 | 41.20900 | -99.84951 | 6028 ft | 113 kts | 266° |
| 2026-04-20 06:55 | 41.20882 | -99.85958 | 6029 ft | 106 kts | 266° |
| 2026-04-20 06:55 | 41.20865 | -99.86927 | 6048 ft | 107 kts | 265° |
| 2026-04-20 06:56 | 41.20849 | -99.87944 | 6045 ft | 112 kts | 267° |
| 2026-04-20 06:56 | 41.20830 | -99.88974 | 6037 ft | 111 kts | 266° |
| 2026-04-20 06:56 | 41.20814 | -99.90008 | 6042 ft | 112 kts | 266° |
| 2026-04-20 06:56 | 41.20795 | -99.91033 | 6047 ft | 111 kts | 266° |
| 2026-04-20 06:57 | 41.20779 | -99.92071 | 6040 ft | 111 kts | 266° |
| 2026-04-20 06:57 | 41.20763 | -99.93085 | 6037 ft | 109 kts | 266° |
| 2026-04-20 06:57 | 41.20742 | -99.94075 | 6045 ft | 106 kts | 265° |
| 2026-04-20 06:57 | 41.20726 | -99.95054 | 6041 ft | 104 kts | 266° |
| 2026-04-20 06:58 | 41.20709 | -99.96028 | 6043 ft | 108 kts | 266° |
| 2026-04-20 06:58 | 41.20694 | -99.97038 | 6049 ft | 111 kts | 268° |
| 2026-04-20 06:58 | 41.20676 | -99.98072 | 6051 ft | 113 kts | 266° |
| 2026-04-20 06:58 | 41.20656 | -99.99128 | 6026 ft | 113 kts | 266° |
| 2026-04-20 06:59 | 41.20640 | -100.00155 | 6045 ft | 113 kts | 266° |
| 2026-04-20 06:59 | 41.20617 | -100.01195 | 6035 ft | 110 kts | 266° |
| 2026-04-20 06:59 | 41.20602 | -100.02223 | 6044 ft | 113 kts | 266° |
| 2026-04-20 06:59 | 41.20585 | -100.03274 | 6030 ft | 112 kts | 266° |
| 2026-04-20 07:00 | 41.20556 | -100.04299 | 6047 ft | 114 kts | 266° |
| 2026-04-20 07:00 | 41.20549 | -100.05351 | 6030 ft | 111 kts | 266° |
| 2026-04-20 07:00 | 41.20529 | -100.06364 | 6027 ft | 110 kts | 268° |
| 2026-04-20 07:00 | 41.20508 | -100.07353 | 6026 ft | 106 kts | 266° |
| 2026-04-20 07:01 | 41.20489 | -100.08314 | 6030 ft | 102 kts | 266° |
| 2026-04-20 07:01 | 41.20473 | -100.09242 | 6028 ft | 99 kts | 266° |
| 2026-04-20 07:01 | 41.20455 | -100.10138 | 6042 ft | 97 kts | 267° |
| 2026-04-20 07:01 | 41.20440 | -100.11096 | 6044 ft | 108 kts | 266° |
| 2026-04-20 07:02 | 41.20419 | -100.12132 | 6026 ft | 115 kts | 267° |
| 2026-04-20 07:02 | 41.20400 | -100.13160 | 6023 ft | 108 kts | 266° |
| 2026-04-20 07:02 | 41.20381 | -100.14129 | 6025 ft | 102 kts | 266° |
| 2026-04-20 07:02 | 41.20364 | -100.15098 | 6047 ft | 107 kts | 266° |
| 2026-04-20 07:03 | 41.20344 | -100.16118 | 6046 ft | 113 kts | 264° |
| 2026-04-20 07:03 | 41.20324 | -100.17135 | 6026 ft | 112 kts | 266° |
| 2026-04-20 07:03 | 41.20302 | -100.18149 | 6036 ft | 112 kts | 266° |
| 2026-04-20 07:03 | 41.20285 | -100.19189 | 6048 ft | 113 kts | 266° |
| 2026-04-20 07:04 | 41.20267 | -100.20265 | 6029 ft | 116 kts | 266° |
| 2026-04-20 07:04 | 41.20243 | -100.21322 | 6027 ft | 114 kts | 265° |
| 2026-04-20 07:04 | 41.20221 | -100.22371 | 6024 ft | 113 kts | 266° |
| 2026-04-20 07:04 | 41.20203 | -100.23415 | 6029 ft | 114 kts | 266° |
| 2026-04-20 07:05 | 41.20183 | -100.24469 | 6028 ft | 114 kts | 265° |
| 2026-04-20 07:05 | 41.20162 | -100.25551 | 6035 ft | 119 kts | 267° |
| 2026-04-20 07:05 | 41.20135 | -100.26646 | 6036 ft | 118 kts | 266° |
| 2026-04-20 07:05 | 41.20116 | -100.27713 | 6032 ft | 114 kts | 265° |
| 2026-04-20 07:06 | 41.20094 | -100.28802 | 6019 ft | 121 kts | 266° |
| 2026-04-20 07:06 | 41.20072 | -100.29881 | 6023 ft | 114 kts | 266° |
| 2026-04-20 07:06 | 41.20054 | -100.30926 | 6035 ft | 116 kts | 265° |
| 2026-04-20 07:06 | 41.20028 | -100.31997 | 6029 ft | 116 kts | 265° |
| 2026-04-20 07:07 | 41.20007 | -100.33086 | 6035 ft | 120 kts | 265° |
| 2026-04-20 07:07 | 41.19984 | -100.34195 | 6033 ft | 120 kts | 265° |
| 2026-04-20 07:07 | 41.19962 | -100.35306 | 6031 ft | 120 kts | 265° |
| 2026-04-20 07:07 | 41.19937 | -100.36425 | 6029 ft | 122 kts | 265° |
| 2026-04-20 07:08 | 41.19915 | -100.37533 | 6021 ft | 120 kts | 265° |
| 2026-04-20 07:08 | 41.19891 | -100.38658 | 6027 ft | 121 kts | 265° |
| 2026-04-20 07:08 | 41.19868 | -100.39758 | 6013 ft | 120 kts | 265° |
| 2026-04-20 07:08 | 41.19847 | -100.40854 | 6015 ft | 117 kts | 265° |
| 2026-04-20 07:09 | 41.19820 | -100.41933 | 6007 ft | 117 kts | 266° |
| 2026-04-20 07:09 | 41.19800 | -100.42995 | 6014 ft | 113 kts | 265° |
| 2026-04-20 07:09 | 41.19776 | -100.44039 | 6019 ft | 115 kts | 265° |
| 2026-04-20 07:09 | 41.19752 | -100.45104 | 6023 ft | 115 kts | 264° |
| 2026-04-20 07:10 | 41.19732 | -100.46165 | 6025 ft | 115 kts | 265° |
| 2026-04-20 07:10 | 41.19705 | -100.47223 | 6020 ft | 115 kts | 265° |
| 2026-04-20 07:10 | 41.19690 | -100.48283 | 6015 ft | 113 kts | 265° |
| 2026-04-20 07:10 | 41.19660 | -100.49322 | 6018 ft | 113 kts | 265° |
| 2026-04-20 07:11 | 41.19638 | -100.50377 | 6015 ft | 114 kts | 266° |
| 2026-04-20 07:11 | 41.19615 | -100.51425 | 6023 ft | 113 kts | 265° |
| 2026-04-20 07:11 | 41.19588 | -100.52481 | 6022 ft | 114 kts | 265° |
| 2026-04-20 07:11 | 41.19565 | -100.53514 | 6011 ft | 109 kts | 267° |
| 2026-04-20 07:12 | 41.19547 | -100.54503 | 6012 ft | 106 kts | 264° |
| 2026-04-20 07:12 | 41.19522 | -100.55508 | 6028 ft | 113 kts | 265° |
| 2026-04-20 07:12 | 41.19497 | -100.56581 | 6022 ft | 117 kts | 265° |
| 2026-04-20 07:12 | 41.19466 | -100.57650 | 6028 ft | 116 kts | 267° |
| 2026-04-20 07:13 | 41.19448 | -100.58715 | 6019 ft | 115 kts | 265° |
| 2026-04-20 07:13 | 41.19426 | -100.59771 | 6015 ft | 114 kts | 266° |
| 2026-04-20 07:13 | 41.19403 | -100.60810 | 6009 ft | 111 kts | 266° |
| 2026-04-20 07:13 | 41.19378 | -100.61834 | 6012 ft | 111 kts | 266° |
| 2026-04-20 07:14 | 41.19356 | -100.62872 | 6016 ft | 113 kts | 266° |
| 2026-04-20 07:14 | 41.19333 | -100.63914 | 6007 ft | 111 kts | 265° |
| 2026-04-20 07:14 | 41.19307 | -100.64952 | 6017 ft | 114 kts | 266° |
| 2026-04-20 07:14 | 41.19283 | -100.66010 | 6017 ft | 115 kts | 266° |
| 2026-04-20 07:15 | 41.19259 | -100.67070 | 5966 ft | 116 kts | 266° |
| 2026-04-20 07:15 | 41.19235 | -100.68131 | 5870 ft | 115 kts | 266° |
| 2026-04-20 07:15 | 41.19210 | -100.69179 | 5770 ft | 115 kts | 266° |
| 2026-04-20 07:15 | 41.19186 | -100.70234 | 5661 ft | 114 kts | 267° |
| 2026-04-20 07:16 | 41.19161 | -100.71284 | 5571 ft | 114 kts | 266° |
| 2026-04-20 07:16 | 41.19134 | -100.72342 | 5472 ft | 115 kts | 267° |
| 2026-04-20 07:16 | 41.19109 | -100.73405 | 5374 ft | 115 kts | 267° |
| 2026-04-20 07:16 | 41.19085 | -100.74473 | 5285 ft | 117 kts | 266° |
| 2026-04-20 07:17 | 41.19063 | -100.75559 | 5173 ft | 117 kts | 265° |
| 2026-04-20 07:17 | 41.18856 | -100.76546 | 5055 ft | 111 kts | 227° |
| 2026-04-20 07:17 | 41.18231 | -100.77010 | 4969 ft | 103 kts | 182° |
| 2026-04-20 07:17 | 41.17535 | -100.76819 | 4846 ft | 102 kts | 144° |
| 2026-04-20 07:18 | 41.17093 | -100.76124 | 4736 ft | 97 kts | 127° |
| 2026-04-20 07:18 | 41.16723 | -100.75443 | 4685 ft | 88 kts | 126° |
| 2026-04-20 07:18 | 41.16395 | -100.74812 | 4567 ft | 82 kts | 125° |
| 2026-04-20 07:18 | 41.16069 | -100.74198 | 4390 ft | 81 kts | 125° |
| 2026-04-20 07:19 | 41.15757 | -100.73594 | 4319 ft | 78 kts | 126° |
| 2026-04-20 07:19 | 41.15442 | -100.73027 | 4145 ft | 76 kts | 129° |
| 2026-04-20 07:19 | 41.15132 | -100.72504 | 3971 ft | 68 kts | 129° |
| 2026-04-20 07:19 | 41.14862 | -100.72023 | 3810 ft | 61 kts | 127° |
| 2026-04-20 07:20 | 41.14623 | -100.71553 | 3634 ft | 63 kts | 126° |
| 2026-04-20 07:20 | 41.14356 | -100.71056 | 3489 ft | 68 kts | 129° |
| 2026-04-20 07:20 | 41.14066 | -100.70539 | 3317 ft | 71 kts | 128° |
| 2026-04-20 07:20 | 41.13870 | -100.70186 | 3197 ft | 73 kts | 131° |
| 2026-04-20 07:21 | 41.13559 | -100.69630 | 3034 ft | 77 kts | 129° |
| 2026-04-20 07:21 | 41.13250 | -100.69061 | 2843 ft | 75 kts | 128° |
| 2026-04-20 07:21 | 41.12985 | -100.68582 | 2775 ft | 50 kts | 126° |
| 2026-04-20 07:21 | 41.12820 | -100.68283 | 2772 ft | 33 kts | 126° |
| 2026-04-20 07:22 | 41.12725 | -100.68085 | 2772 ft | 13 kts | 116° |
| 2026-04-20 07:22 | 41.12719 | -100.68126 | 2772 ft | 12 kts | 310° |
| 2026-04-20 07:22 | 41.12800 | -100.68248 | 2772 ft | 20 kts | 306° |
| 2026-04-20 07:22 | 41.12832 | -100.68386 | 2773 ft | 12 kts | 237° |
| 2026-04-20 07:23 | 41.12777 | -100.68444 | 2773 ft | 9 kts | 215° |
| 2026-04-20 07:23 | 41.12744 | -100.68500 | 2773 ft | 9 kts | 272° |
| 2026-04-20 07:23 | 41.12788 | -100.68592 | 2773 ft | 14 kts | 306° |
| 2026-04-20 07:23 | 41.12850 | -100.68705 | 2773 ft | 14 kts | 305° |
| 2026-04-20 07:24 | 41.12902 | -100.68801 | 2773 ft | 12 kts | 304° |
| 2026-04-20 07:24 | 41.12950 | -100.68887 | 2773 ft | 14 kts | 306° |
| 2026-04-20 07:24 | 41.13016 | -100.69009 | 2773 ft | 16 kts | 306° |
| 2026-04-20 07:24 | 41.13076 | -100.69117 | 2773 ft | 13 kts | 307° |
| 2026-04-20 07:25 | 41.13111 | -100.69212 | 2774 ft | 10 kts | 270° |
| 2026-04-20 07:25 | 41.13111 | -100.69307 | 2775 ft | 13 kts | 270° |
| 2026-04-20 07:25 | 41.13112 | -100.69416 | 2774 ft | 10 kts | 270° |
| 2026-04-20 07:25 | 41.13111 | -100.69501 | 2774 ft | 8 kts | 271° |
| 2026-04-20 07:26 | 41.13113 | -100.69600 | 2774 ft | 11 kts | 284° |
| 2026-04-20 07:26 | 41.13172 | -100.69630 | 2774 ft | 9 kts | 1° |
| 2026-04-20 07:26 | 41.13208 | -100.69647 | 2774 ft | 2 kts | 268° |
| 2026-04-20 07:26 | 41.13208 | -100.69649 | 2774 ft | 0 kts | 268° |